QTR122 OTHH-LIMC
Flight info
| Callsign | QTR122 |
|---|---|
| Flight time | 6h 7m |
| Altitude | 39000 |
| Route | DATRI2W/34L DATRI L564 MIGMA/N0523F280 M628 AMBAG/N0500F360 M321 KSA T503 GADLI/N0491F380 T503 OVANO L768 FIRAS R655 KTN R785 NIKAS L619 VESAR UN135 IMR UN127 RIKSO DCT TALAS DCT MAVAR DCT GEBNI DCT SPL DCT BAXON/N0482F390 DCT GOXIN DCT OTNUN DCT LOMED/N0481F400 DCT BEROK DCT MIVKI DCT GOLAS/N0434F180 T648 MEBUR |
| Aircraft | A35K/H-SDE2E3GHIJ3J4J5LM1ORWXY/LB1D1 |
Departure
| Time | 2026-05-05 08:39 |
|---|---|
| Airport | Hamad International Airport (OTHH) |
Arrival
| Time | 2026-05-05 14:46 |
|---|---|
| Airport | Milan Malpensa International Airport (LIMC) |
| Time | Latitude | Longitude | Altitude | Speed | Heading |
|---|---|---|---|---|---|
| 2026-05-05 07:44 | 25.26318 | 51.61592 | 26 ft | 0 kts | 158° |
| 2026-05-05 08:17 | 25.26328 | 51.61587 | 31 ft | 4 kts | 158° |
| 2026-05-05 08:17 | 25.26353 | 51.61576 | 31 ft | 4 kts | 158° |
| 2026-05-05 08:18 | 25.26378 | 51.61565 | 31 ft | 4 kts | 158° |
| 2026-05-05 08:18 | 25.26397 | 51.61556 | 31 ft | 4 kts | 141° |
| 2026-05-05 08:18 | 25.26403 | 51.61538 | 31 ft | 3 kts | 69° |
| 2026-05-05 08:18 | 25.26393 | 51.61511 | 31 ft | 4 kts | 68° |
| 2026-05-05 08:19 | 25.26388 | 51.61497 | 31 ft | 0 kts | 68° |
| 2026-05-05 08:27 | 25.26389 | 51.61499 | 26 ft | 1 kts | 68° |
| 2026-05-05 08:27 | 25.26402 | 51.61533 | 30 ft | 8 kts | 68° |
| 2026-05-05 08:27 | 25.26425 | 51.61597 | 30 ft | 10 kts | 68° |
| 2026-05-05 08:27 | 25.26453 | 51.61673 | 31 ft | 11 kts | 68° |
| 2026-05-05 08:28 | 25.26486 | 51.61761 | 30 ft | 14 kts | 68° |
| 2026-05-05 08:28 | 25.26525 | 51.61866 | 30 ft | 16 kts | 66° |
| 2026-05-05 08:28 | 25.26615 | 51.61895 | 30 ft | 15 kts | 343° |
| 2026-05-05 08:28 | 25.26717 | 51.61853 | 26 ft | 16 kts | 338° |
| 2026-05-05 08:29 | 25.26828 | 51.61803 | 30 ft | 18 kts | 338° |
| 2026-05-05 08:29 | 25.26949 | 51.61749 | 31 ft | 19 kts | 339° |
| 2026-05-05 08:29 | 25.27079 | 51.61694 | 30 ft | 21 kts | 338° |
| 2026-05-05 08:30 | 25.27340 | 51.61579 | 30 ft | 17 kts | 338° |
| 2026-05-05 08:30 | 25.27413 | 51.61547 | 29 ft | 18 kts | 338° |
| 2026-05-05 08:30 | 25.27505 | 51.61471 | 27 ft | 17 kts | 274° |
| 2026-05-05 08:30 | 25.27471 | 51.61344 | 29 ft | 18 kts | 249° |
| 2026-05-05 08:31 | 25.27421 | 51.61207 | 30 ft | 20 kts | 248° |
| 2026-05-05 08:31 | 25.27366 | 51.61060 | 31 ft | 22 kts | 248° |
| 2026-05-05 08:31 | 25.27309 | 51.60901 | 30 ft | 21 kts | 250° |
| 2026-05-05 08:31 | 25.27264 | 51.60772 | 29 ft | 17 kts | 249° |
| 2026-05-05 08:32 | 25.27217 | 51.60642 | 30 ft | 19 kts | 248° |
| 2026-05-05 08:32 | 25.27165 | 51.60500 | 31 ft | 21 kts | 247° |
| 2026-05-05 08:32 | 25.27107 | 51.60347 | 30 ft | 22 kts | 247° |
| 2026-05-05 08:32 | 25.27051 | 51.60188 | 28 ft | 15 kts | 249° |
| 2026-05-05 08:33 | 25.26984 | 51.60118 | 27 ft | 14 kts | 179° |
| 2026-05-05 08:33 | 25.26885 | 51.60152 | 29 ft | 16 kts | 158° |
| 2026-05-05 08:33 | 25.26775 | 51.60202 | 30 ft | 18 kts | 158° |
| 2026-05-05 08:33 | 25.26651 | 51.60258 | 28 ft | 20 kts | 158° |
| 2026-05-05 08:34 | 25.26516 | 51.60318 | 28 ft | 22 kts | 158° |
| 2026-05-05 08:34 | 25.26370 | 51.60379 | 26 ft | 23 kts | 159° |
| 2026-05-05 08:34 | 25.26215 | 51.60448 | 27 ft | 25 kts | 158° |
| 2026-05-05 08:34 | 25.26050 | 51.60521 | 26 ft | 26 kts | 158° |
| 2026-05-05 08:35 | 25.25876 | 51.60598 | 26 ft | 25 kts | 158° |
| 2026-05-05 08:35 | 25.25797 | 51.60632 | 31 ft | 12 kts | 158° |
| 2026-05-05 08:35 | 25.25727 | 51.60642 | 27 ft | 8 kts | 205° |
| 2026-05-05 08:35 | 25.25698 | 51.60586 | 30 ft | 10 kts | 251° |
| 2026-05-05 08:36 | 25.25682 | 51.60507 | 25 ft | 12 kts | 273° |
| 2026-05-05 08:36 | 25.25716 | 51.60463 | 29 ft | 7 kts | 327° |
| 2026-05-05 08:36 | 25.25762 | 51.60440 | 27 ft | 1 kts | 340° |
| 2026-05-05 08:38 | 25.25768 | 51.60438 | 27 ft | 11 kts | 340° |
| 2026-05-05 08:38 | 25.26073 | 51.60306 | 29 ft | 81 kts | 338° |
| 2026-05-05 08:38 | 25.26792 | 51.59991 | 29 ft | 139 kts | 338° |
| 2026-05-05 08:38 | 25.27854 | 51.59527 | 63 ft | 185 kts | 339° |
| 2026-05-05 08:39 | 25.29070 | 51.59014 | 629 ft | 192 kts | 340° |
| 2026-05-05 08:39 | 25.30365 | 51.58501 | 1192 ft | 203 kts | 340° |
| 2026-05-05 08:39 | 25.31714 | 51.57992 | 1784 ft | 204 kts | 341° |
| 2026-05-05 08:39 | 25.33076 | 51.57526 | 2319 ft | 205 kts | 343° |
| 2026-05-05 08:40 | 25.34437 | 51.57031 | 2795 ft | 206 kts | 341° |
| 2026-05-05 08:40 | 25.35781 | 51.56406 | 3175 ft | 216 kts | 335° |
| 2026-05-05 08:40 | 25.37163 | 51.55649 | 3492 ft | 228 kts | 335° |
| 2026-05-05 08:40 | 25.38624 | 51.54892 | 3789 ft | 242 kts | 336° |
| 2026-05-05 08:41 | 25.40233 | 51.54113 | 3960 ft | 262 kts | 338° |
| 2026-05-05 08:41 | 25.41962 | 51.53314 | 3979 ft | 268 kts | 338° |
| 2026-05-05 08:41 | 25.43674 | 51.52543 | 3984 ft | 270 kts | 338° |
| 2026-05-05 08:41 | 25.45411 | 51.51759 | 3978 ft | 269 kts | 338° |
| 2026-05-05 08:42 | 25.47052 | 51.50766 | 3974 ft | 270 kts | 321° |
| 2026-05-05 08:42 | 25.48165 | 51.49109 | 3977 ft | 272 kts | 292° |
| 2026-05-05 08:42 | 25.48447 | 51.47039 | 3983 ft | 276 kts | 271° |
| 2026-05-05 08:42 | 25.48361 | 51.44911 | 3981 ft | 277 kts | 268° |
| 2026-05-05 08:43 | 25.48237 | 51.42776 | 3987 ft | 278 kts | 268° |
| 2026-05-05 08:43 | 25.48122 | 51.40647 | 3985 ft | 277 kts | 268° |
| 2026-05-05 08:43 | 25.48017 | 51.38515 | 4044 ft | 278 kts | 268° |
| 2026-05-05 08:43 | 25.47916 | 51.36368 | 4448 ft | 282 kts | 269° |
| 2026-05-05 08:44 | 25.47817 | 51.34198 | 5136 ft | 282 kts | 269° |
| 2026-05-05 08:44 | 25.47722 | 51.32027 | 5785 ft | 284 kts | 268° |
| 2026-05-05 08:44 | 25.47604 | 51.29835 | 6392 ft | 287 kts | 265° |
| 2026-05-05 08:44 | 25.47066 | 51.27710 | 6811 ft | 290 kts | 242° |
| 2026-05-05 08:45 | 25.45744 | 51.26057 | 6983 ft | 291 kts | 214° |
| 2026-05-05 08:45 | 25.43866 | 51.25270 | 6997 ft | 292 kts | 186° |
| 2026-05-05 08:45 | 25.41832 | 51.25199 | 6996 ft | 294 kts | 178° |
| 2026-05-05 08:45 | 25.39780 | 51.25262 | 6994 ft | 294 kts | 178° |
| 2026-05-05 08:46 | 25.37733 | 51.25322 | 6998 ft | 295 kts | 178° |
| 2026-05-05 08:46 | 25.35713 | 51.25369 | 6997 ft | 295 kts | 179° |
| 2026-05-05 08:46 | 25.33658 | 51.25405 | 6999 ft | 295 kts | 179° |
| 2026-05-05 08:46 | 25.31606 | 51.25436 | 6997 ft | 295 kts | 179° |
| 2026-05-05 08:47 | 25.29551 | 51.25465 | 7001 ft | 295 kts | 179° |
| 2026-05-05 08:47 | 25.27500 | 51.25543 | 6998 ft | 295 kts | 173° |
| 2026-05-05 08:47 | 25.25463 | 51.25811 | 7068 ft | 297 kts | 184° |
| 2026-05-05 08:47 | 25.23480 | 51.25205 | 7530 ft | 298 kts | 210° |
| 2026-05-05 08:48 | 25.21780 | 51.23929 | 8285 ft | 294 kts | 219° |
| 2026-05-05 08:48 | 25.20228 | 51.22458 | 9005 ft | 295 kts | 224° |
| 2026-05-05 08:48 | 25.18746 | 51.20891 | 9719 ft | 295 kts | 226° |
| 2026-05-05 08:48 | 25.17282 | 51.19285 | 10303 ft | 301 kts | 227° |
| 2026-05-05 08:49 | 25.15756 | 51.17612 | 10613 ft | 318 kts | 226° |
| 2026-05-05 08:49 | 25.14131 | 51.15861 | 10898 ft | 334 kts | 226° |
| 2026-05-05 08:49 | 25.12412 | 51.14046 | 11176 ft | 350 kts | 225° |
| 2026-05-05 08:49 | 25.10610 | 51.12170 | 11434 ft | 363 kts | 225° |
| 2026-05-05 08:50 | 25.08729 | 51.10231 | 11680 ft | 376 kts | 225° |
| 2026-05-05 08:50 | 25.06783 | 51.08233 | 11988 ft | 386 kts | 225° |
| 2026-05-05 08:50 | 25.04806 | 51.06206 | 12442 ft | 390 kts | 225° |
| 2026-05-05 08:50 | 25.02811 | 51.04162 | 12982 ft | 393 kts | 225° |
| 2026-05-05 08:51 | 25.00807 | 51.02107 | 13523 ft | 395 kts | 225° |
| 2026-05-05 08:51 | 24.98780 | 51.00026 | 13967 ft | 399 kts | 225° |
| 2026-05-05 08:51 | 24.96741 | 50.97934 | 14475 ft | 401 kts | 225° |
| 2026-05-05 08:51 | 24.94699 | 50.95837 | 15009 ft | 402 kts | 225° |
| 2026-05-05 08:52 | 24.92648 | 50.93731 | 15529 ft | 404 kts | 225° |
| 2026-05-05 08:52 | 24.90591 | 50.91621 | 16023 ft | 405 kts | 224° |
| 2026-05-05 08:52 | 24.88523 | 50.89500 | 16518 ft | 407 kts | 224° |
| 2026-05-05 08:52 | 24.86445 | 50.87370 | 17012 ft | 409 kts | 224° |
| 2026-05-05 08:53 | 24.84359 | 50.85233 | 17529 ft | 410 kts | 224° |
| 2026-05-05 08:53 | 24.82268 | 50.83093 | 18026 ft | 412 kts | 224° |
| 2026-05-05 08:53 | 24.80165 | 50.80940 | 18421 ft | 414 kts | 224° |
| 2026-05-05 08:53 | 24.78048 | 50.78775 | 18795 ft | 417 kts | 224° |
| 2026-05-05 08:54 | 24.75916 | 50.76596 | 19179 ft | 420 kts | 224° |
| 2026-05-05 08:54 | 24.73770 | 50.74402 | 19573 ft | 422 kts | 224° |
| 2026-05-05 08:54 | 24.71612 | 50.72198 | 19950 ft | 425 kts | 224° |
| 2026-05-05 08:54 | 24.69468 | 50.70009 | 20334 ft | 427 kts | 224° |
| 2026-05-05 08:55 | 24.67286 | 50.67782 | 20722 ft | 430 kts | 224° |
| 2026-05-05 08:55 | 24.65089 | 50.65541 | 21103 ft | 432 kts | 224° |
| 2026-05-05 08:55 | 24.62876 | 50.63285 | 21492 ft | 435 kts | 224° |
| 2026-05-05 08:55 | 24.60652 | 50.61018 | 21878 ft | 438 kts | 224° |
| 2026-05-05 08:56 | 24.58414 | 50.58738 | 22277 ft | 440 kts | 224° |
| 2026-05-05 08:56 | 24.56157 | 50.56441 | 22669 ft | 443 kts | 224° |
| 2026-05-05 08:56 | 24.53890 | 50.54134 | 23056 ft | 446 kts | 224° |
| 2026-05-05 08:56 | 24.51610 | 50.51817 | 23420 ft | 448 kts | 224° |
| 2026-05-05 08:57 | 24.49318 | 50.49487 | 23757 ft | 450 kts | 224° |
| 2026-05-05 08:57 | 24.47019 | 50.47153 | 24126 ft | 451 kts | 224° |
| 2026-05-05 08:57 | 24.44716 | 50.44814 | 24507 ft | 452 kts | 224° |
| 2026-05-05 08:57 | 24.42405 | 50.42470 | 24903 ft | 453 kts | 224° |
| 2026-05-05 08:58 | 24.40086 | 50.40118 | 25343 ft | 454 kts | 224° |
| 2026-05-05 08:58 | 24.37767 | 50.37768 | 25773 ft | 455 kts | 225° |
| 2026-05-05 08:58 | 24.35440 | 50.35409 | 26224 ft | 456 kts | 225° |
| 2026-05-05 08:58 | 24.33105 | 50.33046 | 26658 ft | 458 kts | 225° |
| 2026-05-05 08:59 | 24.30759 | 50.30671 | 27086 ft | 459 kts | 225° |
| 2026-05-05 08:59 | 24.28404 | 50.28289 | 27508 ft | 461 kts | 225° |
| 2026-05-05 08:59 | 24.26037 | 50.25895 | 27836 ft | 465 kts | 225° |
| 2026-05-05 08:59 | 24.23656 | 50.23488 | 28228 ft | 467 kts | 225° |
| 2026-05-05 09:00 | 24.21260 | 50.21069 | 28644 ft | 469 kts | 225° |
| 2026-05-05 09:00 | 24.18858 | 50.18644 | 28793 ft | 470 kts | 225° |
| 2026-05-05 09:00 | 24.16457 | 50.16222 | 28806 ft | 469 kts | 225° |
| 2026-05-05 09:01 | 24.11649 | 50.11377 | 28800 ft | 470 kts | 225° |
| 2026-05-05 09:01 | 24.06859 | 50.06555 | 28799 ft | 470 kts | 225° |
| 2026-05-05 09:02 | 24.02038 | 50.01706 | 28793 ft | 470 kts | 225° |
| 2026-05-05 09:02 | 23.97223 | 49.96867 | 28787 ft | 470 kts | 225° |
| 2026-05-05 09:03 | 23.92402 | 49.92028 | 28788 ft | 470 kts | 224° |
| 2026-05-05 09:03 | 23.87569 | 49.87182 | 28793 ft | 472 kts | 224° |
| 2026-05-05 09:04 | 23.82725 | 49.82330 | 28788 ft | 472 kts | 224° |
| 2026-05-05 09:04 | 23.77883 | 49.77486 | 28788 ft | 472 kts | 224° |
| 2026-05-05 09:05 | 23.73036 | 49.72641 | 28789 ft | 472 kts | 224° |
| 2026-05-05 09:05 | 23.68187 | 49.67800 | 28788 ft | 472 kts | 224° |
| 2026-05-05 09:06 | 23.63338 | 49.62964 | 28784 ft | 472 kts | 224° |
| 2026-05-05 09:06 | 23.58491 | 49.58135 | 28785 ft | 472 kts | 224° |
| 2026-05-05 09:07 | 23.53628 | 49.53294 | 28781 ft | 474 kts | 224° |
| 2026-05-05 09:07 | 23.48789 | 49.48483 | 28779 ft | 474 kts | 224° |
| 2026-05-05 09:08 | 23.43925 | 49.43652 | 28778 ft | 473 kts | 224° |
| 2026-05-05 09:08 | 23.39053 | 49.38818 | 28777 ft | 473 kts | 224° |
| 2026-05-05 09:09 | 23.34186 | 49.33995 | 28778 ft | 473 kts | 224° |
| 2026-05-05 09:09 | 23.29316 | 49.29173 | 28773 ft | 473 kts | 224° |
| 2026-05-05 09:10 | 23.24445 | 49.24354 | 28774 ft | 473 kts | 224° |
| 2026-05-05 09:10 | 23.19572 | 49.19539 | 28774 ft | 474 kts | 224° |
| 2026-05-05 09:11 | 23.14686 | 49.14716 | 28774 ft | 474 kts | 224° |
| 2026-05-05 09:11 | 23.09796 | 49.09894 | 28774 ft | 474 kts | 224° |
| 2026-05-05 09:12 | 23.05156 | 49.04828 | 28776 ft | 472 kts | 233° |
| 2026-05-05 09:12 | 23.01847 | 48.98780 | 28776 ft | 470 kts | 248° |
| 2026-05-05 09:13 | 23.00436 | 48.91884 | 28952 ft | 473 kts | 265° |
| 2026-05-05 09:13 | 23.00394 | 48.88312 | 29362 ft | 474 kts | 270° |
| 2026-05-05 09:13 | 23.00589 | 48.84729 | 29732 ft | 477 kts | 273° |
| 2026-05-05 09:13 | 23.00901 | 48.81150 | 30131 ft | 476 kts | 274° |
| 2026-05-05 09:14 | 23.01252 | 48.77584 | 30551 ft | 474 kts | 274° |
| 2026-05-05 09:14 | 23.01600 | 48.74027 | 30954 ft | 473 kts | 274° |
| 2026-05-05 09:14 | 23.01928 | 48.70479 | 31345 ft | 472 kts | 274° |
| 2026-05-05 09:14 | 23.02236 | 48.66935 | 31733 ft | 471 kts | 273° |
| 2026-05-05 09:15 | 23.02529 | 48.63401 | 32121 ft | 470 kts | 273° |
| 2026-05-05 09:15 | 23.02811 | 48.59872 | 32491 ft | 469 kts | 272° |
| 2026-05-05 09:15 | 23.03088 | 48.56359 | 32946 ft | 465 kts | 272° |
| 2026-05-05 09:15 | 23.03361 | 48.52868 | 33366 ft | 463 kts | 272° |
| 2026-05-05 09:16 | 23.03631 | 48.49388 | 33698 ft | 463 kts | 272° |
| 2026-05-05 09:16 | 23.03902 | 48.45903 | 34007 ft | 462 kts | 272° |
| 2026-05-05 09:16 | 23.04172 | 48.42432 | 34278 ft | 461 kts | 272° |
| 2026-05-05 09:16 | 23.04442 | 48.38968 | 34555 ft | 461 kts | 272° |
| 2026-05-05 09:17 | 23.04710 | 48.35504 | 34839 ft | 460 kts | 272° |
| 2026-05-05 09:17 | 23.04979 | 48.32042 | 35114 ft | 459 kts | 272° |
| 2026-05-05 09:17 | 23.05245 | 48.28596 | 35379 ft | 458 kts | 272° |
| 2026-05-05 09:17 | 23.05511 | 48.25149 | 35637 ft | 457 kts | 272° |
| 2026-05-05 09:18 | 23.05775 | 48.21706 | 35777 ft | 458 kts | 272° |
| 2026-05-05 09:18 | 23.06298 | 48.14875 | 35788 ft | 457 kts | 272° |
| 2026-05-05 09:19 | 23.06820 | 48.07998 | 35796 ft | 457 kts | 271° |
| 2026-05-05 09:19 | 23.07340 | 48.01121 | 35792 ft | 457 kts | 271° |
| 2026-05-05 09:20 | 23.07770 | 47.95407 | 35803 ft | 456 kts | 271° |
| 2026-05-05 09:20 | 23.08292 | 47.88551 | 35802 ft | 456 kts | 272° |
| 2026-05-05 09:21 | 23.09729 | 47.81809 | 35801 ft | 463 kts | 287° |
| 2026-05-05 09:21 | 23.12985 | 47.75711 | 35812 ft | 475 kts | 305° |
| 2026-05-05 09:22 | 23.18004 | 47.70921 | 35823 ft | 488 kts | 321° |
| 2026-05-05 09:22 | 23.23762 | 47.66955 | 35824 ft | 491 kts | 323° |
| 2026-05-05 09:23 | 23.29591 | 47.63101 | 35829 ft | 490 kts | 323° |
| 2026-05-05 09:23 | 23.35401 | 47.59220 | 35836 ft | 490 kts | 322° |
| 2026-05-05 09:24 | 23.41144 | 47.55337 | 35847 ft | 489 kts | 322° |
| 2026-05-05 09:24 | 23.46911 | 47.51421 | 35839 ft | 488 kts | 322° |
| 2026-05-05 09:25 | 23.52671 | 47.47512 | 35844 ft | 488 kts | 322° |
| 2026-05-05 09:25 | 23.58430 | 47.43594 | 35847 ft | 488 kts | 322° |
| 2026-05-05 09:26 | 23.64184 | 47.39679 | 35844 ft | 487 kts | 321° |
| 2026-05-05 09:26 | 23.69924 | 47.35769 | 35843 ft | 487 kts | 321° |
| 2026-05-05 09:27 | 23.75669 | 47.31852 | 35854 ft | 487 kts | 321° |
| 2026-05-05 09:27 | 23.81414 | 47.27931 | 35861 ft | 487 kts | 321° |
| 2026-05-05 09:28 | 23.87148 | 47.24015 | 35858 ft | 486 kts | 321° |
| 2026-05-05 09:28 | 23.92876 | 47.20097 | 35851 ft | 486 kts | 321° |
| 2026-05-05 09:29 | 23.98602 | 47.16177 | 35851 ft | 485 kts | 321° |
| 2026-05-05 09:29 | 24.04318 | 47.12260 | 35861 ft | 485 kts | 321° |
| 2026-05-05 09:30 | 24.10015 | 47.08381 | 35857 ft | 487 kts | 323° |
| 2026-05-05 09:30 | 24.16192 | 47.05162 | 35863 ft | 494 kts | 329° |
| 2026-05-05 09:31 | 24.22508 | 47.02202 | 35868 ft | 493 kts | 330° |
| 2026-05-05 09:31 | 24.28832 | 46.99288 | 35867 ft | 493 kts | 329° |
| 2026-05-05 09:32 | 24.35150 | 46.96361 | 35866 ft | 492 kts | 330° |
| 2026-05-05 09:32 | 24.41456 | 46.93424 | 35871 ft | 492 kts | 329° |
| 2026-05-05 09:33 | 24.47751 | 46.90486 | 35873 ft | 491 kts | 329° |
| 2026-05-05 09:33 | 24.54042 | 46.87545 | 35876 ft | 491 kts | 329° |
| 2026-05-05 09:34 | 24.60334 | 46.84602 | 35880 ft | 491 kts | 329° |
| 2026-05-05 09:34 | 24.66622 | 46.81657 | 35887 ft | 491 kts | 329° |
| 2026-05-05 09:35 | 24.72911 | 46.78709 | 35892 ft | 491 kts | 329° |
| 2026-05-05 09:35 | 24.82346 | 46.74282 | 35907 ft | 491 kts | 329° |
| 2026-05-05 09:36 | 24.88636 | 46.71324 | 35911 ft | 491 kts | 328° |
| 2026-05-05 09:36 | 24.94907 | 46.68338 | 35908 ft | 488 kts | 326° |
| 2026-05-05 09:37 | 25.00467 | 46.64330 | 35915 ft | 470 kts | 311° |
| 2026-05-05 09:37 | 25.05339 | 46.59559 | 35907 ft | 467 kts | 309° |
| 2026-05-05 09:38 | 25.10087 | 46.54670 | 35903 ft | 467 kts | 308° |
| 2026-05-05 09:38 | 25.14838 | 46.49763 | 35905 ft | 468 kts | 308° |
| 2026-05-05 09:39 | 25.19599 | 46.44874 | 35898 ft | 467 kts | 309° |
| 2026-05-05 09:39 | 25.24366 | 46.39989 | 35890 ft | 467 kts | 309° |
| 2026-05-05 09:40 | 25.29101 | 46.35135 | 35897 ft | 468 kts | 309° |
| 2026-05-05 09:40 | 25.33874 | 46.30235 | 35894 ft | 468 kts | 308° |
| 2026-05-05 09:41 | 25.38643 | 46.25332 | 35891 ft | 468 kts | 308° |
| 2026-05-05 09:41 | 25.43408 | 46.20428 | 35889 ft | 468 kts | 308° |
| 2026-05-05 09:42 | 25.48174 | 46.15518 | 35898 ft | 468 kts | 308° |
| 2026-05-05 09:42 | 25.52940 | 46.10602 | 35887 ft | 468 kts | 308° |
| 2026-05-05 09:43 | 25.57707 | 46.05678 | 35886 ft | 468 kts | 308° |
| 2026-05-05 09:43 | 25.62439 | 46.00787 | 35895 ft | 468 kts | 308° |
| 2026-05-05 09:44 | 25.67196 | 45.95869 | 35889 ft | 467 kts | 307° |
| 2026-05-05 09:44 | 25.71945 | 45.90945 | 35878 ft | 468 kts | 307° |
| 2026-05-05 09:45 | 25.76695 | 45.86014 | 35892 ft | 467 kts | 307° |
| 2026-05-05 09:45 | 25.81443 | 45.81083 | 35892 ft | 467 kts | 307° |
| 2026-05-05 09:46 | 25.86188 | 45.76149 | 35880 ft | 468 kts | 307° |
| 2026-05-05 09:46 | 25.90937 | 45.71209 | 35893 ft | 468 kts | 307° |
| 2026-05-05 09:47 | 25.95681 | 45.66260 | 35892 ft | 468 kts | 307° |
| 2026-05-05 09:47 | 26.00420 | 45.61312 | 35893 ft | 467 kts | 307° |
| 2026-05-05 09:48 | 26.05158 | 45.56361 | 35889 ft | 467 kts | 307° |
| 2026-05-05 09:48 | 26.09891 | 45.51407 | 35889 ft | 467 kts | 307° |
| 2026-05-05 09:49 | 26.14594 | 45.46483 | 35891 ft | 467 kts | 307° |
| 2026-05-05 09:49 | 26.19348 | 45.41496 | 35889 ft | 467 kts | 307° |
| 2026-05-05 09:50 | 26.24047 | 45.36564 | 35893 ft | 467 kts | 307° |
| 2026-05-05 09:50 | 26.28769 | 45.31605 | 35893 ft | 467 kts | 307° |
| 2026-05-05 09:51 | 26.33499 | 45.26642 | 35895 ft | 467 kts | 307° |
| 2026-05-05 09:51 | 26.38235 | 45.21676 | 35894 ft | 467 kts | 307° |
| 2026-05-05 09:52 | 26.42966 | 45.16709 | 35903 ft | 467 kts | 307° |
| 2026-05-05 09:52 | 26.47698 | 45.11733 | 35899 ft | 467 kts | 307° |
| 2026-05-05 09:53 | 26.52434 | 45.06750 | 35901 ft | 467 kts | 307° |
| 2026-05-05 09:53 | 26.57133 | 45.01798 | 35899 ft | 467 kts | 307° |
| 2026-05-05 09:54 | 26.61865 | 44.96809 | 35900 ft | 468 kts | 307° |
| 2026-05-05 09:54 | 26.66596 | 44.91814 | 35899 ft | 468 kts | 307° |
| 2026-05-05 09:55 | 26.71324 | 44.86818 | 35893 ft | 468 kts | 307° |
| 2026-05-05 09:55 | 26.76049 | 44.81818 | 35889 ft | 468 kts | 307° |
| 2026-05-05 09:56 | 26.80776 | 44.76813 | 35892 ft | 467 kts | 307° |
| 2026-05-05 09:56 | 26.85493 | 44.71796 | 35892 ft | 467 kts | 306° |
| 2026-05-05 09:57 | 26.90209 | 44.66773 | 35911 ft | 468 kts | 306° |
| 2026-05-05 09:57 | 26.94921 | 44.61752 | 35894 ft | 467 kts | 306° |
| 2026-05-05 09:58 | 26.99594 | 44.56769 | 35889 ft | 467 kts | 306° |
| 2026-05-05 09:58 | 27.04298 | 44.51748 | 35889 ft | 466 kts | 306° |
| 2026-05-05 09:59 | 27.08988 | 44.46719 | 35890 ft | 466 kts | 306° |
| 2026-05-05 09:59 | 27.13680 | 44.41684 | 35911 ft | 466 kts | 306° |
| 2026-05-05 10:00 | 27.18371 | 44.36653 | 35893 ft | 466 kts | 306° |
| 2026-05-05 10:00 | 27.23066 | 44.31619 | 35892 ft | 466 kts | 306° |
| 2026-05-05 10:01 | 27.27759 | 44.26579 | 35904 ft | 466 kts | 306° |
| 2026-05-05 10:01 | 27.32444 | 44.21543 | 35903 ft | 466 kts | 306° |
| 2026-05-05 10:02 | 27.37098 | 44.16533 | 35895 ft | 466 kts | 306° |
| 2026-05-05 10:02 | 27.41775 | 44.11491 | 35900 ft | 465 kts | 306° |
| 2026-05-05 10:03 | 27.46447 | 44.06451 | 35902 ft | 465 kts | 306° |
| 2026-05-05 10:03 | 27.51121 | 44.01400 | 35916 ft | 465 kts | 306° |
| 2026-05-05 10:04 | 27.55784 | 43.96358 | 35903 ft | 464 kts | 306° |
| 2026-05-05 10:04 | 27.60438 | 43.91316 | 35902 ft | 464 kts | 306° |
| 2026-05-05 10:05 | 27.65092 | 43.86269 | 35908 ft | 464 kts | 306° |
| 2026-05-05 10:05 | 27.69741 | 43.81220 | 35906 ft | 464 kts | 306° |
| 2026-05-05 10:06 | 27.74381 | 43.76178 | 35908 ft | 463 kts | 306° |
| 2026-05-05 10:06 | 27.79014 | 43.71134 | 35911 ft | 462 kts | 306° |
| 2026-05-05 10:07 | 27.83642 | 43.66089 | 35920 ft | 463 kts | 306° |
| 2026-05-05 10:07 | 27.87438 | 43.61841 | 35936 ft | 460 kts | 304° |
| 2026-05-05 10:08 | 27.92469 | 43.55706 | 35926 ft | 457 kts | 303° |
| 2026-05-05 10:08 | 27.96775 | 43.50405 | 35931 ft | 458 kts | 303° |
| 2026-05-05 10:09 | 28.00407 | 43.45985 | 35929 ft | 458 kts | 303° |
| 2026-05-05 10:09 | 28.04728 | 43.40760 | 35962 ft | 457 kts | 303° |
| 2026-05-05 10:10 | 28.09062 | 43.35527 | 35924 ft | 454 kts | 303° |
| 2026-05-05 10:10 | 28.13373 | 43.30307 | 35948 ft | 453 kts | 303° |
| 2026-05-05 10:11 | 28.17673 | 43.25088 | 35953 ft | 453 kts | 303° |
| 2026-05-05 10:11 | 28.21973 | 43.19863 | 35950 ft | 452 kts | 303° |
| 2026-05-05 10:12 | 28.26262 | 43.14648 | 35952 ft | 452 kts | 303° |
| 2026-05-05 10:12 | 28.30546 | 43.09430 | 35957 ft | 452 kts | 303° |
| 2026-05-05 10:13 | 28.34831 | 43.04206 | 35953 ft | 452 kts | 303° |
| 2026-05-05 10:13 | 28.39112 | 42.98980 | 35966 ft | 452 kts | 303° |
| 2026-05-05 10:14 | 28.43368 | 42.93777 | 35960 ft | 452 kts | 303° |
| 2026-05-05 10:14 | 28.47653 | 42.88533 | 35961 ft | 452 kts | 303° |
| 2026-05-05 10:15 | 28.51932 | 42.83290 | 35967 ft | 452 kts | 303° |
| 2026-05-05 10:15 | 28.56212 | 42.78038 | 35962 ft | 452 kts | 303° |
| 2026-05-05 10:16 | 28.60493 | 42.72776 | 35965 ft | 452 kts | 303° |
| 2026-05-05 10:16 | 28.64771 | 42.67515 | 35971 ft | 452 kts | 303° |
| 2026-05-05 10:17 | 28.69046 | 42.62256 | 35972 ft | 452 kts | 303° |
| 2026-05-05 10:17 | 28.73311 | 42.56990 | 35977 ft | 452 kts | 303° |
| 2026-05-05 10:18 | 28.77578 | 42.51715 | 35979 ft | 452 kts | 303° |
| 2026-05-05 10:18 | 28.81844 | 42.46437 | 35980 ft | 452 kts | 303° |
| 2026-05-05 10:19 | 28.86105 | 42.41160 | 35983 ft | 452 kts | 303° |
| 2026-05-05 10:19 | 28.90340 | 42.35909 | 35992 ft | 453 kts | 303° |
| 2026-05-05 10:20 | 28.94604 | 42.30614 | 35985 ft | 453 kts | 303° |
| 2026-05-05 10:20 | 28.98865 | 42.25316 | 35984 ft | 453 kts | 303° |
| 2026-05-05 10:21 | 29.03128 | 42.20009 | 35990 ft | 453 kts | 303° |
| 2026-05-05 10:21 | 29.07390 | 42.14704 | 35997 ft | 453 kts | 302° |
| 2026-05-05 10:22 | 29.11647 | 42.09387 | 36001 ft | 453 kts | 302° |
| 2026-05-05 10:22 | 29.15901 | 42.04064 | 36003 ft | 453 kts | 302° |
| 2026-05-05 10:23 | 29.20155 | 41.98738 | 36009 ft | 453 kts | 302° |
| 2026-05-05 10:23 | 29.24403 | 41.93413 | 36004 ft | 453 kts | 302° |
| 2026-05-05 10:24 | 29.28651 | 41.88082 | 36004 ft | 453 kts | 302° |
| 2026-05-05 10:24 | 29.32864 | 41.82788 | 36010 ft | 452 kts | 302° |
| 2026-05-05 10:25 | 29.37097 | 41.77461 | 36040 ft | 452 kts | 302° |
| 2026-05-05 10:25 | 29.41323 | 41.72138 | 36009 ft | 450 kts | 302° |
| 2026-05-05 10:26 | 29.45535 | 41.66825 | 36015 ft | 450 kts | 302° |
| 2026-05-05 10:26 | 29.49744 | 41.61505 | 36015 ft | 450 kts | 302° |
| 2026-05-05 10:27 | 29.53950 | 41.56183 | 36051 ft | 450 kts | 302° |
| 2026-05-05 10:27 | 29.58151 | 41.50863 | 36020 ft | 449 kts | 302° |
| 2026-05-05 10:28 | 29.62343 | 41.45545 | 36020 ft | 449 kts | 302° |
| 2026-05-05 10:28 | 29.66531 | 41.40224 | 36023 ft | 448 kts | 302° |
| 2026-05-05 10:29 | 29.70718 | 41.34899 | 36050 ft | 448 kts | 302° |
| 2026-05-05 10:29 | 29.75086 | 41.29707 | 36194 ft | 456 kts | 306° |
| 2026-05-05 10:30 | 29.77424 | 41.27244 | 36469 ft | 456 kts | 307° |
| 2026-05-05 10:30 | 29.79780 | 41.24804 | 36756 ft | 455 kts | 307° |
| 2026-05-05 10:30 | 29.82144 | 41.22379 | 37009 ft | 455 kts | 307° |
| 2026-05-05 10:30 | 29.84510 | 41.19958 | 37257 ft | 455 kts | 307° |
| 2026-05-05 10:31 | 29.86872 | 41.17542 | 37461 ft | 454 kts | 307° |
| 2026-05-05 10:31 | 29.89233 | 41.15122 | 37710 ft | 454 kts | 307° |
| 2026-05-05 10:31 | 29.91594 | 41.12698 | 37959 ft | 453 kts | 307° |
| 2026-05-05 10:31 | 29.93943 | 41.10283 | 38247 ft | 451 kts | 307° |
| 2026-05-05 10:32 | 29.96281 | 41.07878 | 38505 ft | 450 kts | 307° |
| 2026-05-05 10:32 | 29.98612 | 41.05476 | 38678 ft | 450 kts | 307° |
| 2026-05-05 10:32 | 30.00941 | 41.03071 | 38814 ft | 450 kts | 307° |
| 2026-05-05 10:32 | 30.03275 | 41.00659 | 38940 ft | 450 kts | 307° |
| 2026-05-05 10:33 | 30.07961 | 40.95809 | 39038 ft | 455 kts | 307° |
| 2026-05-05 10:33 | 30.12675 | 40.90929 | 39050 ft | 455 kts | 307° |
| 2026-05-05 10:34 | 30.17386 | 40.86056 | 39026 ft | 454 kts | 307° |
| 2026-05-05 10:34 | 30.22087 | 40.81183 | 39026 ft | 454 kts | 307° |
| 2026-05-05 10:35 | 30.26781 | 40.76307 | 39027 ft | 454 kts | 307° |
| 2026-05-05 10:35 | 30.31474 | 40.71424 | 39022 ft | 454 kts | 307° |
| 2026-05-05 10:36 | 30.36138 | 40.66567 | 39021 ft | 454 kts | 307° |
| 2026-05-05 10:36 | 30.40836 | 40.61683 | 39023 ft | 454 kts | 307° |
| 2026-05-05 10:37 | 30.45575 | 40.56835 | 39020 ft | 455 kts | 307° |
| 2026-05-05 10:37 | 30.50327 | 40.51982 | 39018 ft | 455 kts | 307° |
| 2026-05-05 10:38 | 30.55079 | 40.47116 | 39041 ft | 455 kts | 307° |
| 2026-05-05 10:38 | 30.59820 | 40.42246 | 39020 ft | 455 kts | 307° |
| 2026-05-05 10:39 | 30.64558 | 40.37370 | 39002 ft | 455 kts | 307° |
| 2026-05-05 10:39 | 30.69289 | 40.32495 | 39018 ft | 455 kts | 307° |
| 2026-05-05 10:40 | 30.73991 | 40.27644 | 38996 ft | 455 kts | 307° |
| 2026-05-05 10:40 | 30.78718 | 40.22759 | 39025 ft | 454 kts | 307° |
| 2026-05-05 10:41 | 30.83445 | 40.17869 | 39006 ft | 455 kts | 307° |
| 2026-05-05 10:41 | 30.88172 | 40.12971 | 38998 ft | 455 kts | 307° |
| 2026-05-05 10:42 | 30.95253 | 40.05622 | 39002 ft | 455 kts | 307° |
| 2026-05-05 10:43 | 30.99976 | 40.00713 | 38987 ft | 454 kts | 307° |
| 2026-05-05 10:43 | 31.04690 | 39.95806 | 38990 ft | 454 kts | 307° |
| 2026-05-05 10:44 | 31.09399 | 39.90897 | 38986 ft | 454 kts | 307° |
| 2026-05-05 10:44 | 31.14106 | 39.85983 | 39003 ft | 454 kts | 307° |
| 2026-05-05 10:45 | 31.18781 | 39.81095 | 38991 ft | 454 kts | 307° |
| 2026-05-05 10:45 | 31.23486 | 39.76169 | 38994 ft | 453 kts | 307° |
| 2026-05-05 10:46 | 31.28180 | 39.71249 | 38989 ft | 453 kts | 307° |
| 2026-05-05 10:46 | 31.32870 | 39.66326 | 38993 ft | 453 kts | 307° |
| 2026-05-05 10:47 | 31.37566 | 39.61389 | 38994 ft | 453 kts | 307° |
| 2026-05-05 10:47 | 31.42255 | 39.56453 | 38998 ft | 453 kts | 307° |
| 2026-05-05 10:48 | 31.46937 | 39.51521 | 38987 ft | 453 kts | 307° |
| 2026-05-05 10:48 | 31.51585 | 39.46613 | 38994 ft | 452 kts | 307° |
| 2026-05-05 10:49 | 31.56259 | 39.41669 | 38989 ft | 452 kts | 307° |
| 2026-05-05 10:49 | 31.60930 | 39.36723 | 38988 ft | 452 kts | 307° |
| 2026-05-05 10:50 | 31.65597 | 39.31775 | 38991 ft | 452 kts | 307° |
| 2026-05-05 10:50 | 31.70254 | 39.26831 | 38987 ft | 451 kts | 307° |
| 2026-05-05 10:51 | 31.74905 | 39.21887 | 38985 ft | 451 kts | 307° |
| 2026-05-05 10:51 | 31.79700 | 39.17070 | 38990 ft | 461 kts | 314° |
| 2026-05-05 10:52 | 31.85338 | 39.13235 | 38977 ft | 472 kts | 321° |
| 2026-05-05 10:52 | 31.91219 | 39.09744 | 38985 ft | 473 kts | 322° |
| 2026-05-05 10:53 | 31.97127 | 39.06310 | 38984 ft | 473 kts | 322° |
| 2026-05-05 10:53 | 32.03015 | 39.02856 | 38974 ft | 472 kts | 322° |
| 2026-05-05 10:54 | 32.08893 | 38.99398 | 39003 ft | 472 kts | 322° |
| 2026-05-05 10:54 | 32.14771 | 38.95928 | 38973 ft | 472 kts | 322° |
| 2026-05-05 10:55 | 32.19657 | 38.93040 | 38968 ft | 472 kts | 322° |
| 2026-05-05 10:55 | 32.25535 | 38.89562 | 38962 ft | 472 kts | 322° |
| 2026-05-05 10:56 | 32.31415 | 38.86077 | 38975 ft | 472 kts | 323° |
| 2026-05-05 10:56 | 32.37286 | 38.82594 | 38971 ft | 472 kts | 323° |
| 2026-05-05 10:57 | 32.43124 | 38.79125 | 38959 ft | 472 kts | 323° |
| 2026-05-05 10:57 | 32.48994 | 38.75632 | 38953 ft | 472 kts | 323° |
| 2026-05-05 10:58 | 32.54857 | 38.72139 | 38944 ft | 472 kts | 323° |
| 2026-05-05 10:58 | 32.60730 | 38.68636 | 38942 ft | 472 kts | 323° |
| 2026-05-05 10:59 | 32.66601 | 38.65133 | 38964 ft | 473 kts | 323° |
| 2026-05-05 10:59 | 32.72476 | 38.61614 | 38933 ft | 473 kts | 323° |
| 2026-05-05 11:00 | 32.78351 | 38.58093 | 38934 ft | 473 kts | 323° |
| 2026-05-05 11:00 | 32.84229 | 38.54566 | 38934 ft | 473 kts | 323° |
| 2026-05-05 11:01 | 32.90101 | 38.51039 | 38973 ft | 473 kts | 323° |
| 2026-05-05 11:01 | 32.95977 | 38.47504 | 38924 ft | 474 kts | 323° |
| 2026-05-05 11:02 | 33.01857 | 38.43965 | 38919 ft | 474 kts | 323° |
| 2026-05-05 11:02 | 33.07736 | 38.40413 | 38919 ft | 474 kts | 323° |
| 2026-05-05 11:03 | 33.13610 | 38.36857 | 38917 ft | 474 kts | 323° |
| 2026-05-05 11:03 | 33.19490 | 38.33300 | 38922 ft | 474 kts | 323° |
| 2026-05-05 11:04 | 33.25379 | 38.29736 | 38914 ft | 475 kts | 323° |
| 2026-05-05 11:04 | 33.31227 | 38.26167 | 38914 ft | 474 kts | 323° |
| 2026-05-05 11:05 | 33.37105 | 38.22569 | 38913 ft | 474 kts | 323° |
| 2026-05-05 11:05 | 33.42981 | 38.18971 | 38937 ft | 474 kts | 323° |
| 2026-05-05 11:06 | 33.48876 | 38.15359 | 38910 ft | 478 kts | 324° |
| 2026-05-05 11:06 | 33.54819 | 38.11753 | 38906 ft | 479 kts | 324° |
| 2026-05-05 11:07 | 33.60773 | 38.08143 | 38901 ft | 479 kts | 324° |
| 2026-05-05 11:07 | 33.66719 | 38.04527 | 38900 ft | 479 kts | 324° |
| 2026-05-05 11:08 | 33.72637 | 38.00917 | 38896 ft | 479 kts | 324° |
| 2026-05-05 11:08 | 33.78588 | 37.97280 | 38893 ft | 480 kts | 324° |
| 2026-05-05 11:09 | 33.84392 | 37.93400 | 38903 ft | 470 kts | 317° |
| 2026-05-05 11:09 | 33.89054 | 37.88143 | 38888 ft | 451 kts | 301° |
| 2026-05-05 11:10 | 33.92567 | 37.81953 | 38889 ft | 447 kts | 296° |
| 2026-05-05 11:10 | 33.95861 | 37.75610 | 38894 ft | 446 kts | 296° |
| 2026-05-05 11:11 | 33.99134 | 37.69249 | 38909 ft | 447 kts | 296° |
| 2026-05-05 11:11 | 34.02404 | 37.62940 | 38894 ft | 447 kts | 296° |
| 2026-05-05 11:12 | 34.05708 | 37.56589 | 38900 ft | 447 kts | 296° |
| 2026-05-05 11:12 | 34.09010 | 37.50242 | 38899 ft | 447 kts | 296° |
| 2026-05-05 11:13 | 34.12307 | 37.43890 | 38919 ft | 446 kts | 296° |
| 2026-05-05 11:13 | 34.15599 | 37.37533 | 38905 ft | 447 kts | 296° |
| 2026-05-05 11:14 | 34.18895 | 37.31155 | 38902 ft | 447 kts | 296° |
| 2026-05-05 11:14 | 34.22548 | 37.25020 | 38910 ft | 455 kts | 305° |
| 2026-05-05 11:15 | 34.26858 | 37.19366 | 38904 ft | 458 kts | 307° |
| 2026-05-05 11:15 | 34.31246 | 37.13833 | 38904 ft | 459 kts | 307° |
| 2026-05-05 11:16 | 34.35667 | 37.08269 | 38910 ft | 459 kts | 307° |
| 2026-05-05 11:16 | 34.40075 | 37.02685 | 38934 ft | 459 kts | 307° |
| 2026-05-05 11:17 | 34.44480 | 36.97082 | 38925 ft | 459 kts | 307° |
| 2026-05-05 11:17 | 34.48888 | 36.91461 | 38939 ft | 460 kts | 307° |
| 2026-05-05 11:18 | 34.53297 | 36.85831 | 38940 ft | 460 kts | 307° |
| 2026-05-05 11:18 | 34.57705 | 36.80194 | 38943 ft | 460 kts | 307° |
| 2026-05-05 11:19 | 34.62107 | 36.74556 | 38958 ft | 460 kts | 307° |
| 2026-05-05 11:19 | 34.66491 | 36.68930 | 38953 ft | 462 kts | 307° |
| 2026-05-05 11:20 | 34.70912 | 36.63254 | 38958 ft | 462 kts | 307° |
| 2026-05-05 11:20 | 34.75344 | 36.57552 | 38959 ft | 462 kts | 307° |
| 2026-05-05 11:21 | 34.79732 | 36.51890 | 38965 ft | 463 kts | 307° |
| 2026-05-05 11:21 | 34.84146 | 36.46183 | 38964 ft | 465 kts | 308° |
| 2026-05-05 11:22 | 34.88593 | 36.40426 | 38965 ft | 467 kts | 308° |
| 2026-05-05 11:22 | 34.93045 | 36.34657 | 38967 ft | 467 kts | 308° |
| 2026-05-05 11:23 | 34.97500 | 36.28876 | 38971 ft | 468 kts | 308° |
| 2026-05-05 11:23 | 35.01945 | 36.23095 | 38978 ft | 467 kts | 309° |
| 2026-05-05 11:24 | 35.06372 | 36.17331 | 38969 ft | 464 kts | 309° |
| 2026-05-05 11:24 | 35.10784 | 36.11576 | 38970 ft | 464 kts | 309° |
| 2026-05-05 11:25 | 35.15188 | 36.05817 | 38962 ft | 463 kts | 309° |
| 2026-05-05 11:25 | 35.18924 | 35.99501 | 38965 ft | 455 kts | 294° |
| 2026-05-05 11:26 | 35.20994 | 35.92279 | 38970 ft | 449 kts | 278° |
| 2026-05-05 11:26 | 35.21157 | 35.84690 | 38973 ft | 447 kts | 262° |
| 2026-05-05 11:27 | 35.20373 | 35.77192 | 38958 ft | 448 kts | 267° |
| 2026-05-05 11:27 | 35.20932 | 35.69627 | 38965 ft | 449 kts | 282° |
| 2026-05-05 11:28 | 35.23248 | 35.62521 | 38965 ft | 452 kts | 294° |
| 2026-05-05 11:28 | 35.26183 | 35.55693 | 38966 ft | 454 kts | 295° |
| 2026-05-05 11:29 | 35.29191 | 35.48898 | 38972 ft | 454 kts | 295° |
| 2026-05-05 11:29 | 35.32173 | 35.42076 | 38960 ft | 455 kts | 295° |
| 2026-05-05 11:30 | 35.35135 | 35.35224 | 38963 ft | 455 kts | 295° |
| 2026-05-05 11:30 | 35.38089 | 35.28359 | 38963 ft | 455 kts | 295° |
| 2026-05-05 11:31 | 35.41037 | 35.21489 | 38964 ft | 456 kts | 295° |
| 2026-05-05 11:31 | 35.43992 | 35.14596 | 38963 ft | 457 kts | 295° |
| 2026-05-05 11:32 | 35.46927 | 35.07734 | 38963 ft | 457 kts | 295° |
| 2026-05-05 11:32 | 35.49877 | 35.00825 | 38969 ft | 457 kts | 295° |
| 2026-05-05 11:33 | 35.52831 | 34.93892 | 38969 ft | 458 kts | 295° |
| 2026-05-05 11:33 | 35.55783 | 34.86949 | 38968 ft | 459 kts | 295° |
| 2026-05-05 11:34 | 35.58732 | 34.79998 | 38966 ft | 459 kts | 295° |
| 2026-05-05 11:34 | 35.61677 | 34.73044 | 38975 ft | 459 kts | 295° |
| 2026-05-05 11:35 | 35.64619 | 34.66078 | 38966 ft | 459 kts | 295° |
| 2026-05-05 11:35 | 35.67559 | 34.59105 | 38966 ft | 459 kts | 295° |
| 2026-05-05 11:36 | 35.70477 | 34.52172 | 38966 ft | 459 kts | 295° |
| 2026-05-05 11:36 | 35.73409 | 34.45187 | 38968 ft | 459 kts | 296° |
| 2026-05-05 11:37 | 35.76332 | 34.38210 | 38963 ft | 458 kts | 296° |
| 2026-05-05 11:37 | 35.79250 | 34.31231 | 38966 ft | 458 kts | 296° |
| 2026-05-05 11:38 | 35.82164 | 34.24248 | 38964 ft | 458 kts | 296° |
| 2026-05-05 11:38 | 35.85070 | 34.17264 | 38981 ft | 458 kts | 296° |
| 2026-05-05 11:39 | 35.87986 | 34.10244 | 38965 ft | 461 kts | 296° |
| 2026-05-05 11:39 | 35.90908 | 34.03195 | 38963 ft | 462 kts | 296° |
| 2026-05-05 11:40 | 35.93654 | 33.96031 | 38960 ft | 461 kts | 291° |
| 2026-05-05 11:40 | 35.95971 | 33.88668 | 38960 ft | 458 kts | 291° |
| 2026-05-05 11:41 | 35.98251 | 33.81348 | 38960 ft | 456 kts | 292° |
| 2026-05-05 11:41 | 36.00589 | 33.74070 | 38961 ft | 456 kts | 292° |
| 2026-05-05 11:42 | 36.02957 | 33.66804 | 38951 ft | 456 kts | 292° |
| 2026-05-05 11:42 | 36.05319 | 33.59557 | 38957 ft | 454 kts | 292° |
| 2026-05-05 11:43 | 36.07671 | 33.52318 | 38958 ft | 453 kts | 292° |
| 2026-05-05 11:43 | 36.10000 | 33.45127 | 38952 ft | 453 kts | 292° |
| 2026-05-05 11:44 | 36.12338 | 33.37885 | 38955 ft | 453 kts | 292° |
| 2026-05-05 11:44 | 36.14672 | 33.30639 | 38958 ft | 454 kts | 292° |
| 2026-05-05 11:45 | 36.17005 | 33.23390 | 38955 ft | 454 kts | 292° |
| 2026-05-05 11:45 | 36.18941 | 33.17354 | 38954 ft | 453 kts | 292° |
| 2026-05-05 11:46 | 36.21264 | 33.10093 | 38952 ft | 454 kts | 292° |
| 2026-05-05 11:46 | 36.23599 | 33.02768 | 38964 ft | 455 kts | 292° |
| 2026-05-05 11:47 | 36.25921 | 32.95476 | 38958 ft | 455 kts | 292° |
| 2026-05-05 11:47 | 36.28220 | 32.88238 | 38960 ft | 455 kts | 292° |
| 2026-05-05 11:48 | 36.31682 | 32.77296 | 38965 ft | 454 kts | 292° |
| 2026-05-05 11:48 | 36.33991 | 32.69990 | 38967 ft | 455 kts | 292° |
| 2026-05-05 11:49 | 36.36303 | 32.62688 | 38976 ft | 455 kts | 292° |
| 2026-05-05 11:49 | 36.38618 | 32.55369 | 38982 ft | 456 kts | 292° |
| 2026-05-05 11:50 | 36.40935 | 32.48024 | 38984 ft | 457 kts | 292° |
| 2026-05-05 11:50 | 36.43248 | 32.40666 | 38984 ft | 457 kts | 292° |
| 2026-05-05 11:51 | 36.45553 | 32.33320 | 39275 ft | 454 kts | 292° |
| 2026-05-05 11:51 | 36.46691 | 32.29682 | 39599 ft | 450 kts | 292° |
| 2026-05-05 11:51 | 36.47821 | 32.26063 | 39778 ft | 449 kts | 292° |
| 2026-05-05 11:52 | 36.50087 | 32.18798 | 39958 ft | 452 kts | 292° |
| 2026-05-05 11:52 | 36.52367 | 32.11469 | 39980 ft | 456 kts | 292° |
| 2026-05-05 11:53 | 36.54648 | 32.04119 | 39971 ft | 454 kts | 292° |
| 2026-05-05 11:53 | 36.56881 | 31.96855 | 39970 ft | 451 kts | 292° |
| 2026-05-05 11:54 | 36.59112 | 31.89563 | 39962 ft | 451 kts | 292° |
| 2026-05-05 11:54 | 36.61342 | 31.82263 | 39962 ft | 451 kts | 292° |
| 2026-05-05 11:55 | 36.63570 | 31.74957 | 39969 ft | 450 kts | 292° |
| 2026-05-05 11:55 | 36.65789 | 31.67663 | 39961 ft | 450 kts | 292° |
| 2026-05-05 11:56 | 36.68002 | 31.60370 | 39966 ft | 450 kts | 292° |
| 2026-05-05 11:56 | 36.70297 | 31.53124 | 39963 ft | 450 kts | 294° |
| 2026-05-05 11:57 | 36.72715 | 31.45978 | 39958 ft | 451 kts | 294° |
| 2026-05-05 11:57 | 36.75149 | 31.38769 | 39951 ft | 451 kts | 294° |
| 2026-05-05 11:58 | 36.77396 | 31.31466 | 39953 ft | 452 kts | 291° |
| 2026-05-05 11:58 | 36.79454 | 31.24057 | 39951 ft | 452 kts | 290° |
| 2026-05-05 11:59 | 36.81524 | 31.16638 | 39952 ft | 453 kts | 291° |
| 2026-05-05 11:59 | 36.83629 | 31.09220 | 39957 ft | 453 kts | 291° |
| 2026-05-05 12:00 | 36.85745 | 31.01801 | 39956 ft | 453 kts | 291° |
| 2026-05-05 12:00 | 36.87858 | 30.94381 | 39949 ft | 453 kts | 291° |
| 2026-05-05 12:01 | 36.89966 | 30.86949 | 39967 ft | 454 kts | 291° |
| 2026-05-05 12:01 | 36.92146 | 30.79559 | 39966 ft | 453 kts | 296° |
| 2026-05-05 12:02 | 36.94825 | 30.72442 | 39964 ft | 452 kts | 297° |
| 2026-05-05 12:02 | 36.97576 | 30.65422 | 39965 ft | 452 kts | 297° |
| 2026-05-05 12:03 | 37.00361 | 30.58352 | 39962 ft | 452 kts | 297° |
| 2026-05-05 12:03 | 37.03132 | 30.51281 | 39959 ft | 452 kts | 297° |
| 2026-05-05 12:04 | 37.05892 | 30.44206 | 39966 ft | 452 kts | 297° |
| 2026-05-05 12:04 | 37.08646 | 30.37127 | 39968 ft | 453 kts | 297° |
| 2026-05-05 12:05 | 37.11400 | 30.30030 | 39970 ft | 453 kts | 297° |
| 2026-05-05 12:05 | 37.14151 | 30.22926 | 39980 ft | 453 kts | 297° |
| 2026-05-05 12:06 | 37.16896 | 30.15821 | 39985 ft | 453 kts | 297° |
| 2026-05-05 12:06 | 37.19639 | 30.08706 | 39981 ft | 453 kts | 297° |
| 2026-05-05 12:07 | 37.22362 | 30.01630 | 39994 ft | 453 kts | 297° |
| 2026-05-05 12:07 | 37.25143 | 29.94543 | 39996 ft | 453 kts | 298° |
| 2026-05-05 12:08 | 37.28048 | 29.87526 | 40002 ft | 452 kts | 298° |
| 2026-05-05 12:08 | 37.30955 | 29.80514 | 40002 ft | 452 kts | 298° |
| 2026-05-05 12:09 | 37.33838 | 29.73482 | 40007 ft | 452 kts | 298° |
| 2026-05-05 12:09 | 37.36660 | 29.66417 | 40006 ft | 452 kts | 297° |
| 2026-05-05 12:10 | 37.39381 | 29.59282 | 40008 ft | 453 kts | 297° |
| 2026-05-05 12:10 | 37.42098 | 29.52140 | 40000 ft | 452 kts | 297° |
| 2026-05-05 12:11 | 37.44829 | 29.44998 | 40002 ft | 452 kts | 297° |
| 2026-05-05 12:11 | 37.47546 | 29.37859 | 40003 ft | 452 kts | 296° |
| 2026-05-05 12:12 | 37.50171 | 29.30719 | 40034 ft | 452 kts | 296° |
| 2026-05-05 12:12 | 37.52803 | 29.23508 | 40011 ft | 453 kts | 296° |
| 2026-05-05 12:13 | 37.55450 | 29.16278 | 40023 ft | 454 kts | 296° |
| 2026-05-05 12:13 | 37.58099 | 29.09045 | 40027 ft | 455 kts | 296° |
| 2026-05-05 12:14 | 37.60745 | 29.01804 | 40024 ft | 455 kts | 296° |
| 2026-05-05 12:14 | 37.63387 | 28.94561 | 40019 ft | 454 kts | 296° |
| 2026-05-05 12:15 | 37.66026 | 28.87307 | 40022 ft | 455 kts | 296° |
| 2026-05-05 12:15 | 37.68647 | 28.80084 | 40021 ft | 455 kts | 296° |
| 2026-05-05 12:16 | 37.71278 | 28.72816 | 40019 ft | 455 kts | 296° |
| 2026-05-05 12:16 | 37.73898 | 28.65544 | 40018 ft | 455 kts | 296° |
| 2026-05-05 12:17 | 37.76484 | 28.58242 | 40034 ft | 455 kts | 295° |
| 2026-05-05 12:17 | 37.79058 | 28.50945 | 40036 ft | 455 kts | 295° |
| 2026-05-05 12:18 | 37.81635 | 28.43640 | 40028 ft | 455 kts | 295° |
| 2026-05-05 12:18 | 37.84210 | 28.36331 | 40010 ft | 454 kts | 295° |
| 2026-05-05 12:19 | 37.86776 | 28.29034 | 40028 ft | 454 kts | 295° |
| 2026-05-05 12:19 | 37.89334 | 28.21739 | 40020 ft | 453 kts | 295° |
| 2026-05-05 12:20 | 37.91887 | 28.14441 | 40022 ft | 453 kts | 295° |
| 2026-05-05 12:20 | 37.94419 | 28.07182 | 40026 ft | 454 kts | 295° |
| 2026-05-05 12:21 | 37.96961 | 27.99879 | 40025 ft | 452 kts | 295° |
| 2026-05-05 12:21 | 37.99493 | 27.92590 | 40023 ft | 451 kts | 295° |
| 2026-05-05 12:22 | 38.02131 | 27.85370 | 40023 ft | 451 kts | 298° |
| 2026-05-05 12:22 | 38.04978 | 27.78285 | 40022 ft | 451 kts | 296° |
| 2026-05-05 12:23 | 38.07559 | 27.71006 | 40021 ft | 452 kts | 295° |
| 2026-05-05 12:23 | 38.10063 | 27.63673 | 40023 ft | 452 kts | 295° |
| 2026-05-05 12:24 | 38.12578 | 27.56359 | 40026 ft | 452 kts | 295° |
| 2026-05-05 12:24 | 38.15093 | 27.49097 | 40026 ft | 452 kts | 295° |
| 2026-05-05 12:25 | 38.17629 | 27.41791 | 40025 ft | 451 kts | 295° |
| 2026-05-05 12:25 | 38.20157 | 27.34491 | 40024 ft | 451 kts | 295° |
| 2026-05-05 12:26 | 38.22679 | 27.27179 | 40022 ft | 451 kts | 295° |
| 2026-05-05 12:26 | 38.25196 | 27.19861 | 40026 ft | 451 kts | 295° |
| 2026-05-05 12:27 | 38.27710 | 27.12537 | 40045 ft | 451 kts | 295° |
| 2026-05-05 12:27 | 38.30271 | 27.05248 | 40047 ft | 451 kts | 299° |
| 2026-05-05 12:28 | 38.33831 | 26.98722 | 40046 ft | 449 kts | 314° |
| 2026-05-05 12:28 | 38.38398 | 26.93280 | 40040 ft | 450 kts | 318° |
| 2026-05-05 12:29 | 38.43140 | 26.88063 | 40040 ft | 450 kts | 319° |
| 2026-05-05 12:29 | 38.47901 | 26.82859 | 40047 ft | 450 kts | 319° |
| 2026-05-05 12:30 | 38.52648 | 26.77622 | 40051 ft | 450 kts | 319° |
| 2026-05-05 12:30 | 38.57347 | 26.72402 | 40056 ft | 450 kts | 319° |
| 2026-05-05 12:31 | 38.62078 | 26.67132 | 40057 ft | 451 kts | 319° |
| 2026-05-05 12:31 | 38.66815 | 26.61847 | 40056 ft | 452 kts | 319° |
| 2026-05-05 12:32 | 38.71557 | 26.56548 | 40057 ft | 452 kts | 319° |
| 2026-05-05 12:32 | 38.76292 | 26.51248 | 40060 ft | 452 kts | 319° |
| 2026-05-05 12:33 | 38.81024 | 26.45930 | 40063 ft | 452 kts | 317° |
| 2026-05-05 12:33 | 38.85146 | 26.39867 | 40065 ft | 452 kts | 307° |
| 2026-05-05 12:34 | 38.88161 | 26.34387 | 40064 ft | 453 kts | 305° |
| 2026-05-05 12:34 | 38.91722 | 26.27649 | 40063 ft | 453 kts | 305° |
| 2026-05-05 12:35 | 38.95250 | 26.20934 | 40061 ft | 453 kts | 305° |
| 2026-05-05 12:35 | 38.98757 | 26.14277 | 40061 ft | 453 kts | 305° |
| 2026-05-05 12:36 | 39.02291 | 26.07577 | 40064 ft | 453 kts | 305° |
| 2026-05-05 12:36 | 39.05819 | 26.00878 | 40071 ft | 453 kts | 305° |
| 2026-05-05 12:37 | 39.09346 | 25.94166 | 40060 ft | 452 kts | 305° |
| 2026-05-05 12:37 | 39.12863 | 25.87458 | 40066 ft | 451 kts | 305° |
| 2026-05-05 12:38 | 39.16369 | 25.80758 | 40068 ft | 451 kts | 305° |
| 2026-05-05 12:38 | 39.19871 | 25.74049 | 40068 ft | 451 kts | 305° |
| 2026-05-05 12:39 | 39.23371 | 25.67332 | 40069 ft | 451 kts | 305° |
| 2026-05-05 12:39 | 39.26867 | 25.60608 | 40066 ft | 450 kts | 305° |
| 2026-05-05 12:40 | 39.30351 | 25.53893 | 40068 ft | 451 kts | 305° |
| 2026-05-05 12:40 | 39.33840 | 25.47154 | 40067 ft | 451 kts | 305° |
| 2026-05-05 12:41 | 39.37321 | 25.40416 | 40066 ft | 451 kts | 305° |
| 2026-05-05 12:41 | 39.40778 | 25.33711 | 40066 ft | 451 kts | 305° |
| 2026-05-05 12:42 | 39.44246 | 25.26968 | 40061 ft | 449 kts | 305° |
| 2026-05-05 12:42 | 39.47702 | 25.20237 | 40062 ft | 448 kts | 304° |
| 2026-05-05 12:43 | 39.51148 | 25.13509 | 40061 ft | 448 kts | 304° |
| 2026-05-05 12:43 | 39.54593 | 25.06771 | 40061 ft | 448 kts | 304° |
| 2026-05-05 12:44 | 39.58032 | 25.00029 | 40053 ft | 448 kts | 304° |
| 2026-05-05 12:44 | 39.61457 | 24.93300 | 40061 ft | 446 kts | 304° |
| 2026-05-05 12:45 | 39.64871 | 24.86579 | 40072 ft | 446 kts | 304° |
| 2026-05-05 12:45 | 39.68284 | 24.79847 | 40062 ft | 447 kts | 304° |
| 2026-05-05 12:46 | 39.71697 | 24.73099 | 40058 ft | 447 kts | 304° |
| 2026-05-05 12:46 | 39.75108 | 24.66341 | 40059 ft | 447 kts | 304° |
| 2026-05-05 12:47 | 39.78517 | 24.59572 | 40059 ft | 447 kts | 304° |
| 2026-05-05 12:47 | 39.81897 | 24.52846 | 40059 ft | 447 kts | 304° |
| 2026-05-05 12:48 | 39.85297 | 24.46067 | 40059 ft | 447 kts | 304° |
| 2026-05-05 12:48 | 39.88691 | 24.39284 | 40059 ft | 447 kts | 304° |
| 2026-05-05 12:49 | 39.92077 | 24.32503 | 40053 ft | 446 kts | 304° |
| 2026-05-05 12:49 | 39.95452 | 24.25729 | 40051 ft | 445 kts | 304° |
| 2026-05-05 12:50 | 39.98818 | 24.18958 | 40053 ft | 445 kts | 304° |
| 2026-05-05 12:50 | 40.02185 | 24.12171 | 40056 ft | 445 kts | 304° |
| 2026-05-05 12:51 | 40.05554 | 24.05367 | 40039 ft | 446 kts | 304° |
| 2026-05-05 12:51 | 40.08913 | 23.98567 | 40045 ft | 445 kts | 304° |
| 2026-05-05 12:52 | 40.12261 | 23.91774 | 40045 ft | 445 kts | 304° |
| 2026-05-05 12:52 | 40.15606 | 23.84973 | 40042 ft | 445 kts | 304° |
| 2026-05-05 12:53 | 40.18947 | 23.78164 | 40042 ft | 445 kts | 304° |
| 2026-05-05 12:53 | 40.22283 | 23.71353 | 40034 ft | 444 kts | 304° |
| 2026-05-05 12:54 | 40.27258 | 23.61164 | 40034 ft | 443 kts | 304° |
| 2026-05-05 12:55 | 40.30549 | 23.54407 | 40034 ft | 443 kts | 304° |
| 2026-05-05 12:55 | 40.33857 | 23.47600 | 40024 ft | 443 kts | 304° |
| 2026-05-05 12:56 | 40.37161 | 23.40788 | 40019 ft | 442 kts | 304° |
| 2026-05-05 12:56 | 40.40458 | 23.33973 | 40017 ft | 442 kts | 304° |
| 2026-05-05 12:57 | 40.43745 | 23.27165 | 40023 ft | 442 kts | 304° |
| 2026-05-05 12:57 | 40.47026 | 23.20355 | 40020 ft | 442 kts | 303° |
| 2026-05-05 12:58 | 40.50305 | 23.13532 | 40020 ft | 442 kts | 304° |
| 2026-05-05 12:58 | 40.53578 | 23.06707 | 40015 ft | 440 kts | 303° |
| 2026-05-05 12:59 | 40.56836 | 22.99900 | 40019 ft | 439 kts | 303° |
| 2026-05-05 12:59 | 40.60065 | 22.93137 | 40018 ft | 439 kts | 303° |
| 2026-05-05 13:00 | 40.64949 | 22.82881 | 40016 ft | 439 kts | 303° |
| 2026-05-05 13:01 | 40.71391 | 22.69302 | 40025 ft | 438 kts | 303° |
| 2026-05-05 13:01 | 40.74616 | 22.62480 | 40011 ft | 438 kts | 303° |
| 2026-05-05 13:02 | 40.77839 | 22.55648 | 40014 ft | 439 kts | 303° |
| 2026-05-05 13:02 | 40.81063 | 22.48800 | 40016 ft | 439 kts | 303° |
| 2026-05-05 13:03 | 40.84282 | 22.41945 | 40029 ft | 439 kts | 303° |
| 2026-05-05 13:03 | 40.87493 | 22.35093 | 40029 ft | 438 kts | 303° |
| 2026-05-05 13:04 | 40.90696 | 22.28241 | 40044 ft | 438 kts | 303° |
| 2026-05-05 13:04 | 40.93893 | 22.21388 | 40043 ft | 438 kts | 303° |
| 2026-05-05 13:05 | 40.97094 | 22.14512 | 40041 ft | 439 kts | 303° |
| 2026-05-05 13:05 | 41.00284 | 22.07646 | 40049 ft | 437 kts | 302° |
| 2026-05-05 13:06 | 41.03440 | 22.00832 | 40060 ft | 436 kts | 302° |
| 2026-05-05 13:06 | 41.06609 | 21.93979 | 40062 ft | 436 kts | 302° |
| 2026-05-05 13:07 | 41.09743 | 21.87099 | 40065 ft | 436 kts | 301° |
| 2026-05-05 13:07 | 41.12771 | 21.80116 | 40053 ft | 438 kts | 301° |
| 2026-05-05 13:08 | 41.15786 | 21.73117 | 40067 ft | 436 kts | 300° |
| 2026-05-05 13:08 | 41.18806 | 21.66138 | 40061 ft | 436 kts | 300° |
| 2026-05-05 13:09 | 41.21829 | 21.59163 | 40062 ft | 436 kts | 300° |
| 2026-05-05 13:09 | 41.24847 | 21.52189 | 40060 ft | 435 kts | 300° |
| 2026-05-05 13:10 | 41.27864 | 21.45202 | 40064 ft | 435 kts | 300° |
| 2026-05-05 13:10 | 41.30873 | 21.38215 | 40065 ft | 435 kts | 300° |
| 2026-05-05 13:11 | 41.33880 | 21.31217 | 40056 ft | 435 kts | 300° |
| 2026-05-05 13:11 | 41.36862 | 21.24258 | 40063 ft | 436 kts | 300° |
| 2026-05-05 13:12 | 41.39864 | 21.17236 | 40056 ft | 436 kts | 300° |
| 2026-05-05 13:12 | 41.42864 | 21.10212 | 40063 ft | 436 kts | 300° |
| 2026-05-05 13:13 | 41.45847 | 21.03201 | 40061 ft | 434 kts | 299° |
| 2026-05-05 13:13 | 41.48825 | 20.96187 | 40065 ft | 435 kts | 299° |
| 2026-05-05 13:14 | 41.51800 | 20.89162 | 40063 ft | 435 kts | 299° |
| 2026-05-05 13:14 | 41.54775 | 20.82122 | 40070 ft | 435 kts | 299° |
| 2026-05-05 13:15 | 41.57746 | 20.75080 | 40066 ft | 435 kts | 299° |
| 2026-05-05 13:15 | 41.60713 | 20.68027 | 40068 ft | 435 kts | 299° |
| 2026-05-05 13:16 | 41.63680 | 20.60965 | 40071 ft | 436 kts | 299° |
| 2026-05-05 13:16 | 41.66616 | 20.53949 | 40073 ft | 434 kts | 298° |
| 2026-05-05 13:17 | 41.69726 | 20.47016 | 40070 ft | 435 kts | 302° |
| 2026-05-05 13:17 | 41.73116 | 20.40290 | 40080 ft | 436 kts | 303° |
| 2026-05-05 13:18 | 41.76504 | 20.33551 | 40086 ft | 436 kts | 302° |
| 2026-05-05 13:18 | 41.79845 | 20.26760 | 40085 ft | 436 kts | 302° |
| 2026-05-05 13:19 | 41.83158 | 20.19945 | 40090 ft | 437 kts | 302° |
| 2026-05-05 13:19 | 41.86471 | 20.13105 | 40081 ft | 437 kts | 302° |
| 2026-05-05 13:20 | 41.89787 | 20.06250 | 40089 ft | 438 kts | 302° |
| 2026-05-05 13:20 | 41.92542 | 20.00541 | 40097 ft | 438 kts | 302° |
| 2026-05-05 13:21 | 41.95853 | 19.93668 | 40093 ft | 438 kts | 302° |
| 2026-05-05 13:21 | 41.99168 | 19.86780 | 40098 ft | 438 kts | 302° |
| 2026-05-05 13:22 | 42.02473 | 19.79892 | 40092 ft | 438 kts | 302° |
| 2026-05-05 13:22 | 42.05777 | 19.72986 | 40097 ft | 439 kts | 301° |
| 2026-05-05 13:23 | 42.09080 | 19.66070 | 40099 ft | 439 kts | 301° |
| 2026-05-05 13:23 | 42.12375 | 19.59153 | 40099 ft | 439 kts | 301° |
| 2026-05-05 13:24 | 42.15652 | 19.52259 | 40095 ft | 440 kts | 301° |
| 2026-05-05 13:24 | 42.18947 | 19.45313 | 40096 ft | 440 kts | 301° |
| 2026-05-05 13:25 | 42.22241 | 19.38354 | 40101 ft | 440 kts | 301° |
| 2026-05-05 13:25 | 42.25528 | 19.31389 | 40103 ft | 440 kts | 301° |
| 2026-05-05 13:26 | 42.28810 | 19.24420 | 40103 ft | 440 kts | 301° |
| 2026-05-05 13:26 | 42.32089 | 19.17442 | 40103 ft | 440 kts | 301° |
| 2026-05-05 13:27 | 42.35367 | 19.10450 | 40095 ft | 440 kts | 301° |
| 2026-05-05 13:27 | 42.38636 | 19.03459 | 40101 ft | 440 kts | 301° |
| 2026-05-05 13:28 | 42.41907 | 18.96449 | 40098 ft | 440 kts | 301° |
| 2026-05-05 13:28 | 42.45177 | 18.89425 | 40104 ft | 441 kts | 300° |
| 2026-05-05 13:29 | 42.48447 | 18.82384 | 40095 ft | 442 kts | 300° |
| 2026-05-05 13:29 | 42.51716 | 18.75328 | 40089 ft | 442 kts | 300° |
| 2026-05-05 13:30 | 42.54977 | 18.68261 | 40121 ft | 442 kts | 300° |
| 2026-05-05 13:30 | 42.58226 | 18.61230 | 40111 ft | 443 kts | 300° |
| 2026-05-05 13:31 | 42.61490 | 18.54136 | 40115 ft | 443 kts | 300° |
| 2026-05-05 13:31 | 42.64747 | 18.47039 | 40118 ft | 443 kts | 300° |
| 2026-05-05 13:32 | 42.67996 | 18.39939 | 40117 ft | 443 kts | 300° |
| 2026-05-05 13:32 | 42.71249 | 18.32816 | 40118 ft | 444 kts | 300° |
| 2026-05-05 13:33 | 42.74502 | 18.25678 | 40118 ft | 444 kts | 300° |
| 2026-05-05 13:33 | 42.77755 | 18.18522 | 40109 ft | 445 kts | 300° |
| 2026-05-05 13:34 | 42.81004 | 18.11342 | 40098 ft | 445 kts | 299° |
| 2026-05-05 13:34 | 42.83976 | 18.03943 | 40090 ft | 445 kts | 296° |
| 2026-05-05 13:35 | 42.86800 | 17.96446 | 40085 ft | 445 kts | 296° |
| 2026-05-05 13:35 | 42.89655 | 17.88967 | 40084 ft | 444 kts | 296° |
| 2026-05-05 13:36 | 42.92543 | 17.81511 | 40080 ft | 445 kts | 296° |
| 2026-05-05 13:36 | 42.95437 | 17.74056 | 40078 ft | 445 kts | 296° |
| 2026-05-05 13:37 | 42.98328 | 17.66592 | 40083 ft | 445 kts | 296° |
| 2026-05-05 13:37 | 43.01211 | 17.59124 | 40079 ft | 445 kts | 296° |
| 2026-05-05 13:38 | 43.04090 | 17.51641 | 40081 ft | 444 kts | 296° |
| 2026-05-05 13:38 | 43.06942 | 17.44208 | 40081 ft | 444 kts | 296° |
| 2026-05-05 13:39 | 43.09813 | 17.36708 | 40084 ft | 445 kts | 296° |
| 2026-05-05 13:39 | 43.12679 | 17.29200 | 40089 ft | 445 kts | 296° |
| 2026-05-05 13:40 | 43.15536 | 17.21696 | 40077 ft | 444 kts | 296° |
| 2026-05-05 13:40 | 43.18390 | 17.14180 | 40086 ft | 444 kts | 296° |
| 2026-05-05 13:41 | 43.21239 | 17.06660 | 40083 ft | 444 kts | 296° |
| 2026-05-05 13:41 | 43.24083 | 16.99132 | 40080 ft | 444 kts | 296° |
| 2026-05-05 13:42 | 43.26920 | 16.91600 | 40064 ft | 444 kts | 295° |
| 2026-05-05 13:42 | 43.29737 | 16.84101 | 40063 ft | 444 kts | 295° |
| 2026-05-05 13:43 | 43.32565 | 16.76556 | 40077 ft | 444 kts | 295° |
| 2026-05-05 13:43 | 43.35389 | 16.68999 | 40070 ft | 444 kts | 295° |
| 2026-05-05 13:44 | 43.38206 | 16.61438 | 40071 ft | 444 kts | 295° |
| 2026-05-05 13:44 | 43.41021 | 16.53867 | 40075 ft | 444 kts | 295° |
| 2026-05-05 13:45 | 43.43835 | 16.46277 | 40096 ft | 446 kts | 295° |
| 2026-05-05 13:45 | 43.46651 | 16.38657 | 40101 ft | 446 kts | 295° |
| 2026-05-05 13:46 | 43.49460 | 16.31040 | 40100 ft | 447 kts | 295° |
| 2026-05-05 13:46 | 43.52187 | 16.23353 | 40097 ft | 447 kts | 293° |
| 2026-05-05 13:47 | 43.54786 | 16.15575 | 40112 ft | 447 kts | 293° |
| 2026-05-05 13:47 | 43.57366 | 16.07844 | 40102 ft | 447 kts | 293° |
| 2026-05-05 13:48 | 43.59980 | 16.00074 | 40055 ft | 446 kts | 293° |
| 2026-05-05 13:48 | 43.62601 | 15.92294 | 40062 ft | 448 kts | 294° |
| 2026-05-05 13:49 | 43.65223 | 15.84498 | 40058 ft | 448 kts | 293° |
| 2026-05-05 13:49 | 43.67839 | 15.76691 | 40038 ft | 448 kts | 293° |
| 2026-05-05 13:50 | 43.70447 | 15.68886 | 40060 ft | 448 kts | 293° |
| 2026-05-05 13:50 | 43.73051 | 15.61065 | 40041 ft | 448 kts | 293° |
| 2026-05-05 13:51 | 43.75657 | 15.53218 | 40044 ft | 449 kts | 293° |
| 2026-05-05 13:51 | 43.78258 | 15.45362 | 40046 ft | 449 kts | 293° |
| 2026-05-05 13:52 | 43.80855 | 15.37497 | 40050 ft | 449 kts | 293° |
| 2026-05-05 13:52 | 43.83448 | 15.29619 | 40068 ft | 449 kts | 293° |
| 2026-05-05 13:53 | 43.86036 | 15.21735 | 40061 ft | 450 kts | 293° |
| 2026-05-05 13:53 | 43.88624 | 15.13824 | 40059 ft | 451 kts | 293° |
| 2026-05-05 13:54 | 43.91208 | 15.05903 | 40048 ft | 451 kts | 293° |
| 2026-05-05 13:54 | 43.93788 | 14.97973 | 40033 ft | 451 kts | 293° |
| 2026-05-05 13:55 | 43.96360 | 14.90041 | 40033 ft | 451 kts | 292° |
| 2026-05-05 13:55 | 43.98930 | 14.82094 | 40033 ft | 451 kts | 292° |
| 2026-05-05 13:56 | 44.01496 | 14.74133 | 40031 ft | 451 kts | 292° |
| 2026-05-05 13:56 | 44.04039 | 14.66221 | 40033 ft | 451 kts | 292° |
| 2026-05-05 13:57 | 44.06593 | 14.58246 | 40035 ft | 452 kts | 292° |
| 2026-05-05 13:57 | 44.09149 | 14.50244 | 40027 ft | 453 kts | 292° |
| 2026-05-05 13:58 | 44.11705 | 14.42219 | 40027 ft | 453 kts | 292° |
| 2026-05-05 13:58 | 44.14254 | 14.34193 | 40021 ft | 453 kts | 292° |
| 2026-05-05 13:59 | 44.18066 | 14.22140 | 40021 ft | 453 kts | 292° |
| 2026-05-05 14:00 | 44.21439 | 14.11432 | 40011 ft | 453 kts | 292° |
| 2026-05-05 14:00 | 44.24390 | 14.02024 | 40010 ft | 453 kts | 292° |
| 2026-05-05 14:01 | 44.26908 | 13.93966 | 40005 ft | 453 kts | 292° |
| 2026-05-05 14:01 | 44.29422 | 13.85903 | 40008 ft | 453 kts | 291° |
| 2026-05-05 14:02 | 44.31928 | 13.77839 | 40001 ft | 453 kts | 291° |
| 2026-05-05 14:02 | 44.34427 | 13.69766 | 39994 ft | 453 kts | 291° |
| 2026-05-05 14:03 | 44.36921 | 13.61690 | 39994 ft | 453 kts | 291° |
| 2026-05-05 14:03 | 44.39404 | 13.53592 | 39992 ft | 453 kts | 290° |
| 2026-05-05 14:04 | 44.41016 | 13.45202 | 39989 ft | 449 kts | 275° |
| 2026-05-05 14:04 | 44.41010 | 13.36510 | 39983 ft | 447 kts | 265° |
| 2026-05-05 14:05 | 44.40434 | 13.27850 | 39978 ft | 447 kts | 263° |
| 2026-05-05 14:05 | 44.39776 | 13.19222 | 39978 ft | 446 kts | 263° |
| 2026-05-05 14:06 | 44.39129 | 13.10566 | 39964 ft | 448 kts | 263° |
| 2026-05-05 14:06 | 44.38495 | 13.01890 | 39962 ft | 449 kts | 263° |
| 2026-05-05 14:07 | 44.37862 | 12.93210 | 39960 ft | 449 kts | 263° |
| 2026-05-05 14:07 | 44.37222 | 12.84530 | 39961 ft | 449 kts | 263° |
| 2026-05-05 14:08 | 44.36580 | 12.75911 | 39958 ft | 449 kts | 263° |
| 2026-05-05 14:08 | 44.36032 | 12.68645 | 39957 ft | 449 kts | 263° |
| 2026-05-05 14:09 | 44.35371 | 12.59968 | 39952 ft | 449 kts | 263° |
| 2026-05-05 14:09 | 44.34704 | 12.51288 | 39952 ft | 449 kts | 263° |
| 2026-05-05 14:10 | 44.34031 | 12.42617 | 39949 ft | 449 kts | 263° |
| 2026-05-05 14:10 | 44.33352 | 12.33957 | 39950 ft | 448 kts | 262° |
| 2026-05-05 14:11 | 44.32673 | 12.25371 | 39945 ft | 446 kts | 262° |
| 2026-05-05 14:11 | 44.31985 | 12.16771 | 39944 ft | 445 kts | 262° |
| 2026-05-05 14:12 | 44.31291 | 12.08184 | 39944 ft | 445 kts | 262° |
| 2026-05-05 14:12 | 44.30592 | 11.99600 | 39946 ft | 445 kts | 262° |
| 2026-05-05 14:13 | 44.29885 | 11.91010 | 39947 ft | 446 kts | 262° |
| 2026-05-05 14:13 | 44.29172 | 11.82416 | 39959 ft | 446 kts | 262° |
| 2026-05-05 14:14 | 44.28452 | 11.73827 | 39958 ft | 446 kts | 262° |
| 2026-05-05 14:14 | 44.27726 | 11.65237 | 39958 ft | 446 kts | 262° |
| 2026-05-05 14:15 | 44.26994 | 11.56655 | 39960 ft | 445 kts | 261° |
| 2026-05-05 14:15 | 44.26294 | 11.48125 | 39963 ft | 445 kts | 262° |
| 2026-05-05 14:16 | 44.25617 | 11.39545 | 39970 ft | 445 kts | 262° |
| 2026-05-05 14:16 | 44.24144 | 11.31220 | 39972 ft | 442 kts | 247° |
| 2026-05-05 14:17 | 44.21066 | 11.23832 | 39980 ft | 443 kts | 231° |
| 2026-05-05 14:17 | 44.16717 | 11.17732 | 39975 ft | 445 kts | 224° |
| 2026-05-05 14:18 | 44.12106 | 11.11976 | 39985 ft | 445 kts | 224° |
| 2026-05-05 14:18 | 44.08113 | 11.05465 | 39986 ft | 443 kts | 238° |
| 2026-05-05 14:19 | 44.05637 | 10.97682 | 39983 ft | 441 kts | 254° |
| 2026-05-05 14:19 | 44.05064 | 10.93499 | 39762 ft | 440 kts | 263° |
| 2026-05-05 14:19 | 44.04969 | 10.89245 | 39534 ft | 442 kts | 271° |
| 2026-05-05 14:20 | 44.05349 | 10.84998 | 39309 ft | 445 kts | 279° |
| 2026-05-05 14:20 | 44.06196 | 10.80842 | 39076 ft | 448 kts | 287° |
| 2026-05-05 14:20 | 44.07391 | 10.76893 | 38865 ft | 449 kts | 288° |
| 2026-05-05 14:20 | 44.08450 | 10.72823 | 38630 ft | 446 kts | 284° |
| 2026-05-05 14:21 | 44.09408 | 10.68721 | 38344 ft | 446 kts | 284° |
| 2026-05-05 14:21 | 44.10338 | 10.64607 | 38057 ft | 445 kts | 283° |
| 2026-05-05 14:21 | 44.11240 | 10.60492 | 37784 ft | 445 kts | 283° |
| 2026-05-05 14:21 | 44.12123 | 10.56367 | 37530 ft | 445 kts | 283° |
| 2026-05-05 14:22 | 44.12999 | 10.52232 | 37271 ft | 444 kts | 283° |
| 2026-05-05 14:22 | 44.13868 | 10.48100 | 37009 ft | 446 kts | 282° |
| 2026-05-05 14:22 | 44.14736 | 10.43943 | 36758 ft | 447 kts | 282° |
| 2026-05-05 14:22 | 44.15603 | 10.39784 | 36444 ft | 446 kts | 282° |
| 2026-05-05 14:23 | 44.16465 | 10.35661 | 35942 ft | 441 kts | 282° |
| 2026-05-05 14:23 | 44.17323 | 10.31568 | 35320 ft | 439 kts | 282° |
| 2026-05-05 14:23 | 44.18174 | 10.27506 | 34663 ft | 436 kts | 282° |
| 2026-05-05 14:23 | 44.19021 | 10.23451 | 33957 ft | 436 kts | 282° |
| 2026-05-05 14:24 | 44.19866 | 10.19393 | 33168 ft | 436 kts | 281° |
| 2026-05-05 14:24 | 44.20709 | 10.15332 | 32410 ft | 435 kts | 282° |
| 2026-05-05 14:24 | 44.21555 | 10.11288 | 31662 ft | 436 kts | 282° |
| 2026-05-05 14:24 | 44.22669 | 10.07334 | 30898 ft | 441 kts | 291° |
| 2026-05-05 14:25 | 44.24226 | 10.03615 | 30101 ft | 447 kts | 297° |
| 2026-05-05 14:25 | 44.25962 | 10.00003 | 29261 ft | 448 kts | 300° |
| 2026-05-05 14:25 | 44.27758 | 9.96456 | 28624 ft | 446 kts | 301° |
| 2026-05-05 14:25 | 44.29568 | 9.92961 | 28019 ft | 442 kts | 301° |
| 2026-05-05 14:26 | 44.31364 | 9.89507 | 27419 ft | 437 kts | 301° |
| 2026-05-05 14:26 | 44.33138 | 9.86086 | 26832 ft | 433 kts | 301° |
| 2026-05-05 14:26 | 44.34887 | 9.82689 | 26264 ft | 429 kts | 300° |
| 2026-05-05 14:26 | 44.36612 | 9.79317 | 25665 ft | 425 kts | 300° |
| 2026-05-05 14:27 | 44.38320 | 9.75963 | 25082 ft | 421 kts | 300° |
| 2026-05-05 14:27 | 44.40006 | 9.72640 | 24519 ft | 417 kts | 300° |
| 2026-05-05 14:27 | 44.41678 | 9.69340 | 23944 ft | 414 kts | 300° |
| 2026-05-05 14:27 | 44.43333 | 9.66070 | 23355 ft | 410 kts | 300° |
| 2026-05-05 14:28 | 44.44978 | 9.62903 | 22782 ft | 408 kts | 303° |
| 2026-05-05 14:28 | 44.46865 | 9.59914 | 22228 ft | 411 kts | 307° |
| 2026-05-05 14:28 | 44.48828 | 9.56995 | 21687 ft | 409 kts | 308° |
| 2026-05-05 14:28 | 44.50785 | 9.54120 | 21134 ft | 407 kts | 308° |
| 2026-05-05 14:29 | 44.52739 | 9.51260 | 20590 ft | 405 kts | 308° |
| 2026-05-05 14:29 | 44.54685 | 9.48415 | 20043 ft | 404 kts | 308° |
| 2026-05-05 14:29 | 44.56625 | 9.45581 | 19494 ft | 402 kts | 308° |
| 2026-05-05 14:29 | 44.58556 | 9.42754 | 18921 ft | 401 kts | 308° |
| 2026-05-05 14:30 | 44.60481 | 9.39940 | 18347 ft | 399 kts | 308° |
| 2026-05-05 14:30 | 44.62400 | 9.37127 | 17729 ft | 398 kts | 308° |
| 2026-05-05 14:30 | 44.64309 | 9.34329 | 17163 ft | 395 kts | 308° |
| 2026-05-05 14:30 | 44.66198 | 9.31559 | 16588 ft | 391 kts | 308° |
| 2026-05-05 14:31 | 44.68064 | 9.28821 | 16010 ft | 385 kts | 308° |
| 2026-05-05 14:31 | 44.69904 | 9.26115 | 15465 ft | 380 kts | 308° |
| 2026-05-05 14:31 | 44.71721 | 9.23441 | 14898 ft | 377 kts | 308° |
| 2026-05-05 14:31 | 44.73500 | 9.20812 | 14366 ft | 374 kts | 309° |
| 2026-05-05 14:32 | 44.75307 | 9.18182 | 13800 ft | 374 kts | 311° |
| 2026-05-05 14:32 | 44.77311 | 9.15847 | 13211 ft | 373 kts | 319° |
| 2026-05-05 14:32 | 44.79427 | 9.13746 | 12668 ft | 371 kts | 321° |
| 2026-05-05 14:32 | 44.81538 | 9.11688 | 12111 ft | 369 kts | 322° |
| 2026-05-05 14:33 | 44.83644 | 9.09633 | 11575 ft | 367 kts | 322° |
| 2026-05-05 14:33 | 44.85702 | 9.07622 | 11381 ft | 351 kts | 321° |
| 2026-05-05 14:33 | 44.87657 | 9.05708 | 11246 ft | 334 kts | 321° |
| 2026-05-05 14:33 | 44.89515 | 9.03886 | 11134 ft | 318 kts | 321° |
| 2026-05-05 14:34 | 44.91295 | 9.02135 | 10975 ft | 304 kts | 321° |
| 2026-05-05 14:34 | 44.92988 | 9.00467 | 10863 ft | 290 kts | 321° |
| 2026-05-05 14:34 | 44.94605 | 8.98873 | 10715 ft | 278 kts | 321° |
| 2026-05-05 14:34 | 44.96210 | 8.97389 | 10601 ft | 276 kts | 328° |
| 2026-05-05 14:35 | 44.98013 | 8.96393 | 10414 ft | 279 kts | 340° |
| 2026-05-05 14:35 | 44.99882 | 8.95664 | 10147 ft | 278 kts | 341° |
| 2026-05-05 14:35 | 45.01752 | 8.94970 | 9865 ft | 279 kts | 342° |
| 2026-05-05 14:35 | 45.03686 | 8.94243 | 9711 ft | 293 kts | 341° |
| 2026-05-05 14:36 | 45.05657 | 8.93500 | 9512 ft | 292 kts | 341° |
| 2026-05-05 14:36 | 45.07623 | 8.92755 | 9012 ft | 293 kts | 342° |
| 2026-05-05 14:36 | 45.09594 | 8.92005 | 8636 ft | 293 kts | 342° |
| 2026-05-05 14:36 | 45.11563 | 8.91254 | 8350 ft | 293 kts | 342° |
| 2026-05-05 14:37 | 45.13499 | 8.90514 | 8062 ft | 292 kts | 342° |
| 2026-05-05 14:37 | 45.15457 | 8.89768 | 7777 ft | 291 kts | 342° |
| 2026-05-05 14:37 | 45.17406 | 8.89023 | 7471 ft | 290 kts | 342° |
| 2026-05-05 14:37 | 45.19355 | 8.88274 | 7184 ft | 289 kts | 342° |
| 2026-05-05 14:38 | 45.21286 | 8.87530 | 6912 ft | 285 kts | 343° |
| 2026-05-05 14:38 | 45.23187 | 8.86800 | 6621 ft | 282 kts | 343° |
| 2026-05-05 14:38 | 45.25072 | 8.86074 | 6378 ft | 280 kts | 344° |
| 2026-05-05 14:38 | 45.26946 | 8.85354 | 6073 ft | 278 kts | 344° |
| 2026-05-05 14:39 | 45.28812 | 8.84638 | 5790 ft | 277 kts | 344° |
| 2026-05-05 14:39 | 45.30663 | 8.83926 | 5590 ft | 271 kts | 344° |
| 2026-05-05 14:39 | 45.32434 | 8.83245 | 5489 ft | 256 kts | 344° |
| 2026-05-05 14:39 | 45.34108 | 8.82600 | 5383 ft | 243 kts | 344° |
| 2026-05-05 14:40 | 45.35693 | 8.81990 | 5285 ft | 231 kts | 344° |
| 2026-05-05 14:40 | 45.37214 | 8.81396 | 5164 ft | 222 kts | 344° |
| 2026-05-05 14:40 | 45.38694 | 8.80827 | 5085 ft | 219 kts | 344° |
| 2026-05-05 14:40 | 45.40123 | 8.80243 | 4997 ft | 207 kts | 339° |
| 2026-05-05 14:41 | 45.41417 | 8.79493 | 4899 ft | 197 kts | 340° |
| 2026-05-05 14:41 | 45.42745 | 8.79082 | 4624 ft | 195 kts | 350° |
| 2026-05-05 14:41 | 45.44067 | 8.78686 | 4309 ft | 194 kts | 346° |
| 2026-05-05 14:41 | 45.45388 | 8.78243 | 4009 ft | 195 kts | 348° |
| 2026-05-05 14:42 | 45.46721 | 8.77853 | 3728 ft | 195 kts | 349° |
| 2026-05-05 14:42 | 45.48029 | 8.77490 | 3465 ft | 187 kts | 350° |
| 2026-05-05 14:42 | 45.49278 | 8.77143 | 3220 ft | 179 kts | 350° |
| 2026-05-05 14:42 | 45.50471 | 8.76812 | 2987 ft | 171 kts | 350° |
| 2026-05-05 14:43 | 45.51607 | 8.76497 | 2762 ft | 162 kts | 351° |
| 2026-05-05 14:43 | 45.52681 | 8.76201 | 2550 ft | 152 kts | 351° |
| 2026-05-05 14:43 | 45.53695 | 8.75921 | 2368 ft | 147 kts | 351° |
| 2026-05-05 14:43 | 45.54695 | 8.75646 | 2159 ft | 146 kts | 351° |
| 2026-05-05 14:44 | 45.55687 | 8.75373 | 1956 ft | 145 kts | 351° |
| 2026-05-05 14:44 | 45.56675 | 8.75100 | 1766 ft | 144 kts | 351° |
| 2026-05-05 14:44 | 45.57641 | 8.74834 | 1562 ft | 143 kts | 350° |
| 2026-05-05 14:44 | 45.58625 | 8.74562 | 1359 ft | 141 kts | 350° |
| 2026-05-05 14:45 | 45.59583 | 8.74303 | 1163 ft | 139 kts | 349° |
| 2026-05-05 14:45 | 45.60523 | 8.74039 | 964 ft | 139 kts | 348° |
| 2026-05-05 14:45 | 45.61472 | 8.73781 | 781 ft | 139 kts | 349° |
| 2026-05-05 14:45 | 45.62393 | 8.73528 | 733 ft | 124 kts | 348° |
| 2026-05-05 14:46 | 45.62999 | 8.73358 | 737 ft | 47 kts | 349° |
| 2026-05-05 14:46 | 45.63205 | 8.73301 | 741 ft | 27 kts | 349° |
| 2026-05-05 14:46 | 45.63386 | 8.73251 | 744 ft | 26 kts | 349° |
| 2026-05-05 14:46 | 45.63552 | 8.73202 | 752 ft | 24 kts | 344° |
| 2026-05-05 14:47 | 45.63699 | 8.73101 | 752 ft | 24 kts | 322° |
| 2026-05-05 14:47 | 45.63794 | 8.72962 | 752 ft | 6 kts | 308° |
| 2026-05-05 14:47 | 45.63824 | 8.72903 | 753 ft | 8 kts | 307° |
| 2026-05-05 14:47 | 45.63861 | 8.72829 | 755 ft | 10 kts | 306° |
| 2026-05-05 14:48 | 45.63905 | 8.72737 | 756 ft | 13 kts | 304° |
| 2026-05-05 14:48 | 45.63953 | 8.72625 | 757 ft | 14 kts | 291° |
| 2026-05-05 14:48 | 45.63950 | 8.72485 | 755 ft | 15 kts | 260° |
| 2026-05-05 14:48 | 45.63930 | 8.72327 | 764 ft | 17 kts | 259° |
| 2026-05-05 14:49 | 45.63915 | 8.72147 | 762 ft | 19 kts | 266° |
| 2026-05-05 14:49 | 45.63906 | 8.71952 | 765 ft | 20 kts | 261° |
| 2026-05-05 14:49 | 45.63830 | 8.71828 | 760 ft | 15 kts | 191° |
| 2026-05-05 14:49 | 45.63715 | 8.71850 | 757 ft | 19 kts | 168° |
| 2026-05-05 14:50 | 45.63574 | 8.71888 | 757 ft | 23 kts | 169° |
| 2026-05-05 14:50 | 45.63437 | 8.71924 | 753 ft | 4 kts | 169° |
| 2026-05-05 14:50 | 45.63420 | 8.71929 | 751 ft | 6 kts | 169° |
| 2026-05-05 14:50 | 45.63364 | 8.71943 | 753 ft | 10 kts | 175° |
| 2026-05-05 14:51 | 45.63310 | 8.71877 | 750 ft | 12 kts | 251° |
| 2026-05-05 14:51 | 45.63289 | 8.71750 | 751 ft | 15 kts | 258° |
| 2026-05-05 14:51 | 45.63273 | 8.71628 | 749 ft | 11 kts | 260° |
| 2026-05-05 14:51 | 45.63257 | 8.71522 | 749 ft | 10 kts | 245° |
| 2026-05-05 14:52 | 45.63228 | 8.71489 | 748 ft | 5 kts | 202° |
| 2026-05-05 14:52 | 45.63191 | 8.71466 | 749 ft | 6 kts | 202° |
| 2026-05-05 14:52 | 45.63179 | 8.71460 | 749 ft | 0 kts | 200° |